Observation data for Throckmorton on 11/08/2019      Previous  Date       Current Mesonet Observations  Soil Data  Daily Summary Page  Observations in Plain Language
KTH1 080600Z 36007KT 03/M01 A3047 RMK A01 T00271009  RH  077%=      5-min Rain = 0
KTH1 080601Z 34006KT 03/M01 A3047 RMK A01 T00271009  RH  077%=      5-min Rain = 0
KTH1 080602Z 35005KT 03/M01 A3047 RMK A01 T00271008  RH  078%=      5-min Rain = 0
KTH1 080603Z 35005KT 03/M01 A3047 RMK A01 T00271007  RH  078%=      5-min Rain = 0
KTH1 080604Z 36005KT 03/M01 A3047 RMK A01 T00271008  RH  078%=      5-min Rain = 0
KTH1 080605Z 36005KT 03/M01 A3047 RMK A01 T00271008  RH  078%=      5-min Rain = 0
KTH1 080606Z 00006KT 03/M01 A3047 RMK A01 T00271008  RH  078%=      5-min Rain = 0
KTH1 080607Z 35004KT 03/M01 A3047 RMK A01 T00271009  RH  077%=      5-min Rain = 0
KTH1 080608Z 00003KT 03/M01 A3047 RMK A01 T00271008  RH  078%=      5-min Rain = 0
KTH1 080609Z 00004KT 03/M01 A3047 RMK A01 T00271007  RH  078%=      5-min Rain = 0
KTH1 080610Z 00004KT 03/M01 A3047 RMK A01 T00271008  RH  078%=      5-min Rain = 0
KTH1 080611Z 01006KT 03/M01 A3047 RMK A01 T00271009  RH  077%=      5-min Rain = 0
KTH1 080612Z 01006KT 03/M01 A3047 RMK A01 T00261010  RH  077%=      5-min Rain = 0
KTH1 080613Z 00006KT 03/M01 A3046 RMK A01 T00261011  RH  077%=      5-min Rain = 0
KTH1 080614Z 36006KT 03/M01 A3046 RMK A01 T00261012  RH  076%=      5-min Rain = 0
KTH1 080615Z 36004KT 03/M01 A3046 RMK A01 T00261011  RH  076%=      5-min Rain = 0
KTH1 080616Z 02005KT 03/M01 A3046 RMK A01 T00261011  RH  077%=      5-min Rain = 0
KTH1 080617Z 01003KT 03/M01 A3046 RMK A01 T00261010  RH  077%=      5-min Rain = 0
KTH1 080618Z 00006KT 03/M01 A3046 RMK A01 T00261009  RH  077%=      5-min Rain = 0
KTH1 080619Z 00005KT 03/M01 A3046 RMK A01 T00271010  RH  077%=      5-min Rain = 0
KTH1 080620Z 01006KT 03/M01 A3046 RMK A01 T00261011  RH  077%=      5-min Rain = 0
KTH1 080621Z 00005KT 03/M01 A3046 RMK A01 T00261011  RH  076%=      5-min Rain = 0
KTH1 080622Z 01006KT 03/M01 A3046 RMK A01 T00261010  RH  077%=      5-min Rain = 0
KTH1 080623Z 01006KT 03/M01 A3046 RMK A01 T00271011  RH  076%=      5-min Rain = 0
KTH1 080624Z 01007KT 03/M01 A3046 RMK A01 T00261011  RH  076%=      5-min Rain = 0
KTH1 080625Z 36006KT 03/M01 A3046 RMK A01 T00261013  RH  075%=      5-min Rain = 0
KTH1 080626Z 00007KT 03/M01 A3046 RMK A01 T00261013  RH  075%=      5-min Rain = 0
KTH1 080627Z 36004KT 03/M01 A3046 RMK A01 T00261012  RH  076%=      5-min Rain = 0
KTH1 080628Z 36003KT 03/M01 A3046 RMK A01 T00261011  RH  077%=      5-min Rain = 0
KTH1 080629Z 00003KT 03/M01 A3046 RMK A01 T00271010  RH  077%=      5-min Rain = 0
KTH1 080630Z 36005KT 03/M01 A3046 RMK A01 T00271010  RH  077%=      5-min Rain = 0
KTH1 080631Z 00005KT 03/M01 A3046 RMK A01 T00271011  RH  076%=      5-min Rain = 0
KTH1 080632Z 00007KT 03/M01 A3046 RMK A01 T00271012  RH  075%=      5-min Rain = 0
KTH1 080633Z 35006KT 03/M01 A3046 RMK A01 T00271013  RH  075%=      5-min Rain = 0
KTH1 080634Z 35005KT 03/M02 A3046 RMK A01 T00271015  RH  074%=      5-min Rain = 0
KTH1 080635Z 35005KT 03/M01 A3046 RMK A01 T00271013  RH  075%=      5-min Rain = 0
KTH1 080636Z 36005KT 03/M01 A3046 RMK A01 T00271012  RH  075%=      5-min Rain = 0
KTH1 080637Z 36005KT 03/M01 A3046 RMK A01 T00271011  RH  076%=      5-min Rain = 0
KTH1 080638Z 35004KT 03/M01 A3046 RMK A01 T00271011  RH  076%=      5-min Rain = 0
KTH1 080639Z 35004KT 03/M01 A3046 RMK A01 T00271010  RH  077%=      5-min Rain = 0
KTH1 080640Z 34005KT 03/M01 A3046 RMK A01 T00281010  RH  076%=      5-min Rain = 0
KTH1 080641Z 34004KT 03/M01 A3046 RMK A01 T00281009  RH  077%=      5-min Rain = 0
KTH1 080642Z 34005KT 03/M01 A3046 RMK A01 T00281009  RH  077%=      5-min Rain = 0
KTH1 080643Z 34006KT 03/M01 A3046 RMK A01 T00281009  RH  077%=      5-min Rain = 0
KTH1 080644Z 35004KT 03/M01 A3046 RMK A01 T00281010  RH  076%=      5-min Rain = 0
KTH1 080645Z 34005KT 03/M01 A3046 RMK A01 T00281010  RH  076%=      5-min Rain = 0
KTH1 080646Z 34005KT 03/M01 A3046 RMK A01 T00281011  RH  076%=      5-min Rain = 0
KTH1 080647Z 34005KT 03/M01 A3046 RMK A01 T00281010  RH  076%=      5-min Rain = 0
KTH1 080648Z 35006KT 03/M01 A3046 RMK A01 T00281011  RH  075%=      5-min Rain = 0
KTH1 080649Z 36005KT 03/M01 A3046 RMK A01 T00281011  RH  075%=      5-min Rain = 0
KTH1 080650Z 35007KT 03/M01 A3046 RMK A01 T00281011  RH  075%=      5-min Rain = 0
KTH1 080651Z 35005KT 03/M01 A3047 RMK A01 T00281012  RH  075%=      5-min Rain = 0
KTH1 080652Z 34003KT 03/M01 A3047 RMK A01 T00281010  RH  076%=      5-min Rain = 0
KTH1 080653Z 35006KT 03/M01 A3047 RMK A01 T00281010  RH  076%=      5-min Rain = 0
KTH1 080654Z 35007KT 03/M01 A3047 RMK A01 T00281012  RH  075%=      5-min Rain = 0
KTH1 080655Z 35006KT 03/M01 A3047 RMK A01 T00281012  RH  075%=      5-min Rain = 0
KTH1 080656Z 34006KT 03/M01 A3047 RMK A01 T00281011  RH  075%=      5-min Rain = 0
KTH1 080657Z 35006KT 03/M01 A3047 RMK A01 T00281012  RH  075%=      5-min Rain = 0
KTH1 080658Z 35005KT 03/M01 A3047 RMK A01 T00281012  RH  075%=      5-min Rain = 0
KTH1 080659Z 34006KT 03/M01 A3047 RMK A01 T00281011  RH  076%=      5-min Rain = 0
KTH1 080700Z 34006KT 03/M01 A3046 RMK A01 T00291012  RH  075%=      5-min Rain = 0
KTH1 080701Z 34004KT 03/M01 A3046 RMK A01 T00291012  RH  075%=      5-min Rain = 0
KTH1 080702Z 35007KT 03/M01 A3046 RMK A01 T00291011  RH  075%=      5-min Rain = 0
KTH1 080703Z 35007KT 03/M01 A3046 RMK A01 T00291012  RH  075%=      5-min Rain = 0
KTH1 080704Z 34006KT 03/M01 A3046 RMK A01 T00281012  RH  075%=      5-min Rain = 0
KTH1 080705Z 34007KT 03/M01 A3046 RMK A01 T00291012  RH  074%=      5-min Rain = 0
KTH1 080706Z 34006KT 03/M01 A3046 RMK A01 T00291013  RH  074%=      5-min Rain = 0
KTH1 080707Z 34004KT 03/M01 A3046 RMK A01 T00281012  RH  075%=      5-min Rain = 0
KTH1 080708Z 34005KT 03/M01 A3046 RMK A01 T00291010  RH  075%=      5-min Rain = 0
KTH1 080709Z 34006KT 03/M01 A3046 RMK A01 T00291011  RH  075%=      5-min Rain = 0
KTH1 080710Z 35004KT 03/M01 A3046 RMK A01 T00291012  RH  075%=      5-min Rain = 0
KTH1 080711Z 35004KT 03/M01 A3046 RMK A01 T00291012  RH  075%=      5-min Rain = 0
KTH1 080712Z 34003KT 03/M01 A3046 RMK A01 T00291012  RH  074%=      5-min Rain = 0
KTH1 080713Z 34005KT 03/M01 A3046 RMK A01 T00281012  RH  075%=      5-min Rain = 0
KTH1 080714Z 35006KT 03/M01 A3046 RMK A01 T00291010  RH  075%=      5-min Rain = 0
KTH1 080715Z 34006KT 03/M01 A3046 RMK A01 T00291010  RH  075%=      5-min Rain = 0
KTH1 080716Z 34006KT 03/M01 A3046 RMK A01 T00291012  RH  075%=      5-min Rain = 0
KTH1 080717Z 34006KT 03/M01 A3046 RMK A01 T00291012  RH  074%=      5-min Rain = 0
KTH1 080718Z 35006KT 03/M01 A3046 RMK A01 T00291012  RH  074%=      5-min Rain = 0
KTH1 080719Z 34004KT 03/M01 A3046 RMK A01 T00291011  RH  075%=      5-min Rain = 0
KTH1 080720Z 35005KT 03/M01 A3046 RMK A01 T00291011  RH  075%=      5-min Rain = 0
KTH1 080721Z 34005KT 03/M01 A3046 RMK A01 T00291011  RH  075%=      5-min Rain = 0
KTH1 080722Z 35005KT 03/M01 A3046 RMK A01 T00291011  RH  075%=      5-min Rain = 0
KTH1 080723Z 35004KT 03/M01 A3046 RMK A01 T00291011  RH  075%=      5-min Rain = 0
KTH1 080724Z 36005KT 03/M01 A3046 RMK A01 T00291011  RH  075%=      5-min Rain = 0
KTH1 080725Z 35006KT 03/M01 A3046 RMK A01 T00291012  RH  074%=      5-min Rain = 0
KTH1 080726Z 34004KT 03/M01 A3046 RMK A01 T00301012  RH  074%=      5-min Rain = 0
KTH1 080727Z 34006KT 03/M01 A3046 RMK A01 T00291012  RH  074%=      5-min Rain = 0
KTH1 080728Z 35007KT 03/M01 A3046 RMK A01 T00301012  RH  074%=      5-min Rain = 0
KTH1 080729Z 35006KT 03/M01 A3046 RMK A01 T00301013  RH  074%=      5-min Rain = 0
KTH1 080730Z 35007KT 03/M01 A3046 RMK A01 T00301013  RH  074%=      5-min Rain = 0
KTH1 080731Z 34008KT 03/M02 A3046 RMK A01 T00291015  RH  073%=      5-min Rain = 0
KTH1 080732Z 34005KT 03/M02 A3046 RMK A01 T00291015  RH  072%=      5-min Rain = 0
KTH1 080733Z 35006KT 03/M01 A3046 RMK A01 T00291013  RH  073%=      5-min Rain = 0
KTH1 080734Z 34007KT 03/M01 A3046 RMK A01 T00301013  RH  074%=      5-min Rain = 0
KTH1 080735Z 36008KT 03/M01 A3046 RMK A01 T00301013  RH  073%=      5-min Rain = 0
KTH1 080736Z 35006KT 03/M01 A3046 RMK A01 T00301014  RH  073%=      5-min Rain = 0
KTH1 080737Z 35005KT 03/M01 A3046 RMK A01 T00301012  RH  074%=      5-min Rain = 0
KTH1 080738Z 35004KT 03/M01 A3046 RMK A01 T00301012  RH  074%=      5-min Rain = 0
KTH1 080739Z 34004KT 03/M01 A3046 RMK A01 T00301012  RH  074%=      5-min Rain = 0
KTH1 080740Z 35005KT 03/M01 A3046 RMK A01 T00301011  RH  074%=      5-min Rain = 0
KTH1 080741Z 35004KT 03/M01 A3046 RMK A01 T00301011  RH  075%=      5-min Rain = 0
KTH1 080742Z 33005KT 03/M01 A3046 RMK A01 T00301011  RH  075%=      5-min Rain = 0
KTH1 080743Z 33005KT 03/M01 A3046 RMK A01 T00301012  RH  074%=      5-min Rain = 0
KTH1 080744Z 35005KT 03/M01 A3046 RMK A01 T00301012  RH  074%=      5-min Rain = 0
KTH1 080745Z 34007KT 03/M01 A3046 RMK A01 T00301012  RH  074%=      5-min Rain = 0
KTH1 080746Z 35007KT 03/M01 A3046 RMK A01 T00301013  RH  073%=      5-min Rain = 0
KTH1 080747Z 34006KT 03/M01 A3046 RMK A01 T00301013  RH  073%=      5-min Rain = 0
KTH1 080748Z 35005KT 03/M01 A3046 RMK A01 T00301014  RH  073%=      5-min Rain = 0
KTH1 080749Z 35005KT 03/M01 A3046 RMK A01 T00301012  RH  074%=      5-min Rain = 0
KTH1 080750Z 35005KT 03/M01 A3046 RMK A01 T00301012  RH  074%=      5-min Rain = 0
KTH1 080751Z 35005KT 03/M01 A3046 RMK A01 T00301014  RH  073%=      5-min Rain = 0
KTH1 080752Z 34004KT 03/M01 A3046 RMK A01 T00301012  RH  074%=      5-min Rain = 0
KTH1 080753Z 34004KT 03/M01 A3046 RMK A01 T00301012  RH  074%=      5-min Rain = 0
KTH1 080754Z 34005KT 03/M01 A3046 RMK A01 T00301013  RH  073%=      5-min Rain = 0
KTH1 080755Z 35006KT 03/M01 A3045 RMK A01 T00301014  RH  073%=      5-min Rain = 0
KTH1 080756Z 35006KT 03/M02 A3045 RMK A01 T00301015  RH  072%=      5-min Rain = 0
KTH1 080757Z 34007KT 03/M02 A3045 RMK A01 T00301015  RH  072%=      5-min Rain = 0
KTH1 080758Z 34006KT 03/M02 A3045 RMK A01 T00301017  RH  072%=      5-min Rain = 0
KTH1 080759Z 35006KT 03/M02 A3045 RMK A01 T00291017  RH  071%=      5-min Rain = 0
KTH1 080800Z 35006KT 03/M02 A3045 RMK A01 T00301016  RH  072%=      5-min Rain = 0
KTH1 080801Z 35007KT 03/M02 A3045 RMK A01 T00301016  RH  072%=      5-min Rain = 0
KTH1 080802Z 35006KT 03/M02 A3045 RMK A01 T00291016  RH  072%=      5-min Rain = 0
KTH1 080803Z 35005KT 03/M02 A3045 RMK A01 T00301015  RH  072%=      5-min Rain = 0
KTH1 080804Z 35006KT 03/M02 A3045 RMK A01 T00301015  RH  073%=      5-min Rain = 0
KTH1 080805Z 35005KT 03/M02 A3045 RMK A01 T00301015  RH  072%=      5-min Rain = 0
KTH1 080806Z 35004KT 03/M02 A3045 RMK A01 T00301015  RH  073%=      5-min Rain = 0
KTH1 080807Z 35004KT 03/M01 A3045 RMK A01 T00301013  RH  074%=      5-min Rain = 0
KTH1 080808Z 35006KT 03/M01 A3045 RMK A01 T00291014  RH  073%=      5-min Rain = 0
KTH1 080809Z 35005KT 03/M02 A3045 RMK A01 T00301016  RH  072%=      5-min Rain = 0
KTH1 080810Z 35004KT 03/M01 A3045 RMK A01 T00301014  RH  073%=      5-min Rain = 0
KTH1 080811Z 35005KT 03/M02 A3045 RMK A01 T00291016  RH  072%=      5-min Rain = 0
KTH1 080812Z 35005KT 03/M02 A3045 RMK A01 T00291016  RH  072%=      5-min Rain = 0
KTH1 080813Z 35003KT 03/M02 A3045 RMK A01 T00301015  RH  073%=      5-min Rain = 0
KTH1 080814Z 34004KT 03/M01 A3045 RMK A01 T00301014  RH  073%=      5-min Rain = 0
KTH1 080815Z 35005KT 03/M02 A3045 RMK A01 T00301016  RH  072%=      5-min Rain = 0
KTH1 080816Z 35008KT 03/M02 A3045 RMK A01 T00291017  RH  071%=      5-min Rain = 0
KTH1 080817Z 35006KT 03/M02 A3045 RMK A01 T00301018  RH  071%=      5-min Rain = 0
KTH1 080818Z 35005KT 03/M02 A3045 RMK A01 T00301017  RH  071%=      5-min Rain = 0
KTH1 080819Z 00007KT 03/M02 A3045 RMK A01 T00291017  RH  071%=      5-min Rain = 0
KTH1 080820Z 36006KT 03/M02 A3044 RMK A01 T00301018  RH  071%=      5-min Rain = 0
KTH1 080821Z 00006KT 03/M02 A3044 RMK A01 T00301019  RH  071%=      5-min Rain = 0
KTH1 080822Z 35005KT 03/M02 A3044 RMK A01 T00301018  RH  071%=      5-min Rain = 0
KTH1 080823Z 36005KT 03/M02 A3044 RMK A01 T00301018  RH  071%=      5-min Rain = 0
KTH1 080824Z 36006KT 03/M02 A3044 RMK A01 T00301017  RH  071%=      5-min Rain = 0
KTH1 080825Z 36006KT 03/M02 A3044 RMK A01 T00291019  RH  071%=      5-min Rain = 0
KTH1 080826Z 36005KT 03/M02 A3044 RMK A01 T00291019  RH  070%=      5-min Rain = 0
KTH1 080827Z 35006KT 03/M02 A3044 RMK A01 T00301018  RH  071%=      5-min Rain = 0
KTH1 080828Z 00006KT 03/M02 A3044 RMK A01 T00301018  RH  071%=      5-min Rain = 0
KTH1 080829Z 35006KT 03/M02 A3044 RMK A01 T00301019  RH  071%=      5-min Rain = 0
KTH1 080830Z 36005KT 03/M02 A3044 RMK A01 T00291019  RH  070%=      5-min Rain = 0
KTH1 080831Z 36006KT 03/M02 A3044 RMK A01 T00301020  RH  070%=      5-min Rain = 0
KTH1 080832Z 36004KT 03/M02 A3044 RMK A01 T00301021  RH  070%=      5-min Rain = 0
KTH1 080833Z 00006KT 03/M02 A3044 RMK A01 T00291021  RH  069%=      5-min Rain = 0
KTH1 080834Z 35005KT 03/M02 A3044 RMK A01 T00301022  RH  069%=      5-min Rain = 0
KTH1 080835Z 01005KT 03/M02 A3044 RMK A01 T00291022  RH  069%=      5-min Rain = 0
KTH1 080836Z 36006KT 03/M02 A3044 RMK A01 T00291022  RH  069%=      5-min Rain = 0
KTH1 080837Z 36007KT 03/M02 A3044 RMK A01 T00291021  RH  070%=      5-min Rain = 0
KTH1 080838Z 00007KT 03/M02 A3044 RMK A01 T00291021  RH  070%=      5-min Rain = 0
KTH1 080839Z 36005KT 03/M02 A3044 RMK A01 T00291022  RH  069%=      5-min Rain = 0
KTH1 080840Z 00006KT 03/M02 A3044 RMK A01 T00291022  RH  069%=      5-min Rain = 0
KTH1 080841Z 00004KT 03/M02 A3044 RMK A01 T00291021  RH  069%=      5-min Rain = 0
KTH1 080842Z 00004KT 03/M02 A3044 RMK A01 T00291019  RH  070%=      5-min Rain = 0
KTH1 080843Z 00006KT 03/M02 A3044 RMK A01 T00291020  RH  070%=      5-min Rain = 0
KTH1 080844Z 01006KT 03/M02 A3044 RMK A01 T00291021  RH  070%=      5-min Rain = 0
KTH1 080845Z 00004KT 03/M02 A3044 RMK A01 T00291021  RH  070%=      5-min Rain = 0
KTH1 080846Z 35006KT 03/M02 A3044 RMK A01 T00291021  RH  070%=      5-min Rain = 0
KTH1 080847Z 00006KT 03/M02 A3044 RMK A01 T00291020  RH  070%=      5-min Rain = 0
KTH1 080848Z 35006KT 03/M02 A3044 RMK A01 T00291022  RH  069%=      5-min Rain = 0
KTH1 080849Z 00004KT 03/M02 A3044 RMK A01 T00291022  RH  069%=      5-min Rain = 0
KTH1 080850Z 01004KT 03/M02 A3044 RMK A01 T00291021  RH  070%=      5-min Rain = 0
KTH1 080851Z 01004KT 03/M02 A3044 RMK A01 T00291021  RH  070%=      5-min Rain = 0
KTH1 080852Z 00004KT 03/M02 A3044 RMK A01 T00291020  RH  070%=      5-min Rain = 0
KTH1 080853Z 36005KT 03/M02 A3044 RMK A01 T00291022  RH  069%=      5-min Rain = 0
KTH1 080854Z 00005KT 03/M02 A3043 RMK A01 T00291021  RH  070%=      5-min Rain = 0
KTH1 080855Z 35007KT 03/M02 A3043 RMK A01 T00291021  RH  069%=      5-min Rain = 0
KTH1 080856Z 01007KT 03/M02 A3043 RMK A01 T00291024  RH  068%=      5-min Rain = 0
KTH1 080857Z 00006KT 03/M02 A3043 RMK A01 T00291023  RH  068%=      5-min Rain = 0
KTH1 080858Z 36005KT 03/M02 A3043 RMK A01 T00291023  RH  068%=      5-min Rain = 0
KTH1 080859Z 36006KT 03/M02 A3043 RMK A01 T00291023  RH  069%=      5-min Rain = 0
KTH1 080900Z 36003KT 03/M02 A3044 RMK A01 T00291022  RH  069%=      5-min Rain = 0
KTH1 080901Z 35004KT 03/M02 A3044 RMK A01 T00291020  RH  070%=      5-min Rain = 0
KTH1 080902Z 36003KT 03/M02 A3044 RMK A01 T00291020  RH  070%=      5-min Rain = 0
KTH1 080903Z 35005KT 03/M02 A3044 RMK A01 T00291021  RH  070%=      5-min Rain = 0
KTH1 080904Z 34004KT 03/M02 A3044 RMK A01 T00291022  RH  069%=      5-min Rain = 0
KTH1 080905Z 35004KT 03/M02 A3044 RMK A01 T00291021  RH  069%=      5-min Rain = 0
KTH1 080906Z 33004KT 03/M02 A3044 RMK A01 T00291020  RH  070%=      5-min Rain = 0
KTH1 080907Z 35004KT 03/M02 A3044 RMK A01 T00301018  RH  071%=      5-min Rain = 0
KTH1 080908Z 36007KT 03/M02 A3044 RMK A01 T00301020  RH  070%=      5-min Rain = 0
KTH1 080909Z 35005KT 03/M02 A3044 RMK A01 T00301022  RH  069%=      5-min Rain = 0
KTH1 080910Z 00003KT 03/M02 A3044 RMK A01 T00301022  RH  069%=      5-min Rain = 0
KTH1 080911Z 35005KT 03/M02 A3044 RMK A01 T00291021  RH  069%=      5-min Rain = 0
KTH1 080912Z 01005KT 03/M02 A3043 RMK A01 T00291021  RH  069%=      5-min Rain = 0
KTH1 080913Z 00003KT 03/M02 A3043 RMK A01 T00301021  RH  069%=      5-min Rain = 0
KTH1 080914Z 00004KT 03/M02 A3044 RMK A01 T00291022  RH  069%=      5-min Rain = 0
KTH1 080915Z 01003KT 03/M02 A3044 RMK A01 T00301022  RH  069%=      5-min Rain = 0
KTH1 080916Z 00004KT 03/M02 A3044 RMK A01 T00291022  RH  069%=      5-min Rain = 0
KTH1 080917Z 36005KT 03/M02 A3044 RMK A01 T00291024  RH  068%=      5-min Rain = 0
KTH1 080918Z 35006KT 03/M02 A3044 RMK A01 T00291024  RH  068%=      5-min Rain = 0
KTH1 080919Z 01005KT 03/M02 A3044 RMK A01 T00291023  RH  069%=      5-min Rain = 0
KTH1 080920Z 36007KT 03/M02 A3043 RMK A01 T00291023  RH  068%=      5-min Rain = 0
KTH1 080921Z 36006KT 03/M03 A3043 RMK A01 T00291025  RH  068%=      5-min Rain = 0
KTH1 080922Z 36005KT 03/M03 A3043 RMK A01 T00291025  RH  068%=      5-min Rain = 0
KTH1 080923Z 00005KT 03/M02 A3043 RMK A01 T00291024  RH  068%=      5-min Rain = 0
KTH1 080924Z 00006KT 03/M02 A3043 RMK A01 T00291023  RH  068%=      5-min Rain = 0
KTH1 080925Z 00006KT 03/M02 A3044 RMK A01 T00291024  RH  068%=      5-min Rain = 0
KTH1 080926Z 35005KT 03/M02 A3044 RMK A01 T00291024  RH  068%=      5-min Rain = 0
KTH1 080927Z 00005KT 03/M02 A3044 RMK A01 T00291023  RH  068%=      5-min Rain = 0
KTH1 080928Z 35004KT 03/M02 A3044 RMK A01 T00291024  RH  068%=      5-min Rain = 0
KTH1 080929Z 35005KT 03/M02 A3044 RMK A01 T00291023  RH  069%=      5-min Rain = 0
KTH1 080930Z 35006KT 03/M02 A3044 RMK A01 T00291023  RH  068%=      5-min Rain = 0
KTH1 080931Z 34005KT 03/M02 A3044 RMK A01 T00291023  RH  068%=      5-min Rain = 0
KTH1 080932Z 36005KT 03/M02 A3044 RMK A01 T00291024  RH  068%=      5-min Rain = 0
KTH1 080933Z 36003KT 03/M02 A3044 RMK A01 T00301022  RH  069%=      5-min Rain = 0
KTH1 080934Z 34003KT 03/M02 A3044 RMK A01 T00301019  RH  070%=      5-min Rain = 0
KTH1 080935Z 35005KT 03/M02 A3044 RMK A01 T00301018  RH  071%=      5-min Rain = 0
KTH1 080936Z 35005KT 03/M02 A3044 RMK A01 T00301021  RH  069%=      5-min Rain = 0
KTH1 080937Z 35004KT 03/M02 A3044 RMK A01 T00301023  RH  068%=      5-min Rain = 0
KTH1 080938Z 34004KT 03/M02 A3044 RMK A01 T00301020  RH  070%=      5-min Rain = 0
KTH1 080939Z 34004KT 03/M02 A3044 RMK A01 T00301022  RH  068%=      5-min Rain = 0
KTH1 080940Z 33003KT 03/M02 A3044 RMK A01 T00301024  RH  068%=      5-min Rain = 0
KTH1 080941Z 33004KT 03/M02 A3044 RMK A01 T00301023  RH  068%=      5-min Rain = 0
KTH1 080942Z 34004KT 03/M02 A3044 RMK A01 T00301023  RH  068%=      5-min Rain = 0
KTH1 080943Z 34003KT 03/M02 A3044 RMK A01 T00301023  RH  068%=      5-min Rain = 0
KTH1 080944Z 34003KT 03/M02 A3044 RMK A01 T00311021  RH  069%=      5-min Rain = 0
KTH1 080945Z 34003KT 03/M02 A3044 RMK A01 T00301020  RH  069%=      5-min Rain = 0
KTH1 080946Z 33004KT 03/M02 A3044 RMK A01 T00311018  RH  070%=      5-min Rain = 0
KTH1 080947Z 33003KT 03/M02 A3044 RMK A01 T00311018  RH  071%=      5-min Rain = 0
KTH1 080948Z 34003KT 03/M02 A3044 RMK A01 T00311019  RH  070%=      5-min Rain = 0
KTH1 080949Z 35005KT 03/M02 A3045 RMK A01 T00311020  RH  069%=      5-min Rain = 0
KTH1 080950Z 35005KT 03/M02 A3045 RMK A01 T00311022  RH  068%=      5-min Rain = 0
KTH1 080951Z 34003KT 03/M02 A3045 RMK A01 T00311022  RH  068%=      5-min Rain = 0
KTH1 080952Z 34005KT 03/M02 A3045 RMK A01 T00311022  RH  068%=      5-min Rain = 0
KTH1 080953Z 35006KT 03/M02 A3044 RMK A01 T00301023  RH  068%=      5-min Rain = 0
KTH1 080954Z 34004KT 03/M02 A3044 RMK A01 T00301024  RH  068%=      5-min Rain = 0
KTH1 080955Z 34002KT 03/M02 A3044 RMK A01 T00301022  RH  069%=      5-min Rain = 0
KTH1 080956Z 34004KT 03/M02 A3044 RMK A01 T00301020  RH  069%=      5-min Rain = 0
KTH1 080957Z 34003KT 03/M02 A3044 RMK A01 T00311022  RH  068%=      5-min Rain = 0
KTH1 080958Z 34004KT 03/M02 A3044 RMK A01 T00311021  RH  069%=      5-min Rain = 0
KTH1 080959Z 35004KT 03/M02 A3044 RMK A01 T00301020  RH  069%=      5-min Rain = 0
KTH1 081000Z 35006KT 03/M02 A3044 RMK A01 T00301022  RH  069%=      5-min Rain = 0
KTH1 081001Z 35005KT 03/M03 A3044 RMK A01 T00301025  RH  067%=      5-min Rain = 0
KTH1 081002Z 36005KT 03/M03 A3044 RMK A01 T00301025  RH  067%=      5-min Rain = 0
KTH1 081003Z 36005KT 03/M02 A3044 RMK A01 T00301024  RH  068%=      5-min Rain = 0
KTH1 081004Z 36004KT 03/M02 A3044 RMK A01 T00301023  RH  068%=      5-min Rain = 0
KTH1 081005Z 35006KT 03/M02 A3044 RMK A01 T00301023  RH  068%=      5-min Rain = 0
KTH1 081006Z 35005KT 03/M02 A3044 RMK A01 T00311024  RH  067%=      5-min Rain = 0
KTH1 081007Z 35004KT 03/M02 A3044 RMK A01 T00301022  RH  068%=      5-min Rain = 0
KTH1 081008Z 36006KT 03/M02 A3044 RMK A01 T00311022  RH  068%=      5-min Rain = 0
KTH1 081009Z 35005KT 03/M02 A3044 RMK A01 T00311023  RH  068%=      5-min Rain = 0
KTH1 081010Z 35003KT 03/M02 A3044 RMK A01 T00301023  RH  068%=      5-min Rain = 0
KTH1 081011Z 36004KT 03/M02 A3044 RMK A01 T00301022  RH  069%=      5-min Rain = 0
KTH1 081012Z 36004KT 03/M02 A3044 RMK A01 T00301024  RH  068%=      5-min Rain = 0
KTH1 081013Z 34003KT 03/M03 A3044 RMK A01 T00301025  RH  067%=      5-min Rain = 0
KTH1 081014Z 35004KT 03/M02 A3044 RMK A01 T00301022  RH  069%=      5-min Rain = 0
KTH1 081015Z 34005KT 03/M02 A3044 RMK A01 T00301022  RH  069%=      5-min Rain = 0
KTH1 081016Z 34006KT 03/M02 A3044 RMK A01 T00301023  RH  068%=      5-min Rain = 0
KTH1 081017Z 35006KT 03/M03 A3044 RMK A01 T00301025  RH  067%=      5-min Rain = 0
KTH1 081018Z 35004KT 03/M03 A3044 RMK A01 T00301027  RH  066%=      5-min Rain = 0
KTH1 081019Z 35004KT 03/M02 A3044 RMK A01 T00301024  RH  067%=      5-min Rain = 0
KTH1 081020Z 34004KT 03/M02 A3044 RMK A01 T00301024  RH  067%=      5-min Rain = 0
KTH1 081021Z 35005KT 03/M02 A3044 RMK A01 T00301023  RH  068%=      5-min Rain = 0
KTH1 081022Z 35004KT 03/M02 A3044 RMK A01 T00311023  RH  068%=      5-min Rain = 0
KTH1 081023Z 34003KT 03/M02 A3044 RMK A01 T00301022  RH  069%=      5-min Rain = 0
KTH1 081024Z 34003KT 03/M02 A3044 RMK A01 T00311021  RH  069%=      5-min Rain = 0
KTH1 081025Z 34002KT 03/M02 A3044 RMK A01 T00311020  RH  069%=      5-min Rain = 0
KTH1 081026Z 35004KT 03/M02 A3044 RMK A01 T00311021  RH  069%=      5-min Rain = 0
KTH1 081027Z 36004KT 03/M02 A3044 RMK A01 T00311023  RH  068%=      5-min Rain = 0
KTH1 081028Z 35004KT 03/M02 A3044 RMK A01 T00311023  RH  068%=      5-min Rain = 0
KTH1 081029Z 35004KT 03/M02 A3044 RMK A01 T00311023  RH  068%=      5-min Rain = 0
KTH1 081030Z 35004KT 03/M02 A3044 RMK A01 T00311023  RH  068%=      5-min Rain = 0
KTH1 081031Z 34003KT 03/M02 A3044 RMK A01 T00311023  RH  068%=      5-min Rain = 0
KTH1 081032Z 35004KT 03/M02 A3044 RMK A01 T00311022  RH  068%=      5-min Rain = 0
KTH1 081033Z 34003KT 03/M02 A3044 RMK A01 T00311022  RH  068%=      5-min Rain = 0
KTH1 081034Z 35005KT 03/M02 A3044 RMK A01 T00311022  RH  068%=      5-min Rain = 0
KTH1 081035Z 34005KT 03/M03 A3044 RMK A01 T00311025  RH  067%=      5-min Rain = 0
KTH1 081036Z 35005KT 03/M03 A3044 RMK A01 T00311025  RH  067%=      5-min Rain = 0
KTH1 081037Z 34004KT 03/M02 A3044 RMK A01 T00311024  RH  067%=      5-min Rain = 0
KTH1 081038Z 34005KT 03/M02 A3044 RMK A01 T00311023  RH  068%=      5-min Rain = 0
KTH1 081039Z 34005KT 03/M03 A3044 RMK A01 T00311025  RH  067%=      5-min Rain = 0
KTH1 081040Z 34004KT 03/M03 A3044 RMK A01 T00311025  RH  067%=      5-min Rain = 0
KTH1 081041Z 34003KT 03/M03 A3044 RMK A01 T00311025  RH  067%=      5-min Rain = 0
KTH1 081042Z 34003KT 03/M02 A3044 RMK A01 T00311023  RH  068%=      5-min Rain = 0
KTH1 081043Z 34005KT 03/M02 A3044 RMK A01 T00311022  RH  068%=      5-min Rain = 0
KTH1 081044Z 35004KT 03/M02 A3044 RMK A01 T00311023  RH  068%=      5-min Rain = 0
KTH1 081045Z 34004KT 03/M02 A3044 RMK A01 T00311023  RH  067%=      5-min Rain = 0
KTH1 081046Z 35004KT 03/M02 A3044 RMK A01 T00311024  RH  067%=      5-min Rain = 0
KTH1 081047Z 00005KT 03/M03 A3044 RMK A01 T00311027  RH  066%=      5-min Rain = 0
KTH1 081048Z 35004KT 03/M03 A3044 RMK A01 T00311026  RH  066%=      5-min Rain = 0
KTH1 081049Z 35004KT 03/M02 A3044 RMK A01 T00311024  RH  067%=      5-min Rain = 0
KTH1 081050Z 35006KT 03/M03 A3044 RMK A01 T00311026  RH  066%=      5-min Rain = 0
KTH1 081051Z 35004KT 03/M03 A3044 RMK A01 T00311025  RH  067%=      5-min Rain = 0
KTH1 081052Z 35005KT 03/M02 A3044 RMK A01 T00311024  RH  067%=      5-min Rain = 0
KTH1 081053Z 35005KT 03/M03 A3044 RMK A01 T00311025  RH  067%=      5-min Rain = 0
KTH1 081054Z 35004KT 03/M03 A3044 RMK A01 T00311025  RH  067%=      5-min Rain = 0
KTH1 081055Z 36004KT 03/M03 A3044 RMK A01 T00311025  RH  067%=      5-min Rain = 0
KTH1 081056Z 36005KT 03/M03 A3044 RMK A01 T00311025  RH  067%=      5-min Rain = 0
KTH1 081057Z 36003KT 03/M03 A3044 RMK A01 T00311026  RH  066%=      5-min Rain = 0
KTH1 081058Z 35003KT 03/M02 A3044 RMK A01 T00311023  RH  068%=      5-min Rain = 0
KTH1 081059Z 35005KT 03/M02 A3044 RMK A01 T00311023  RH  067%=      5-min Rain = 0
KTH1 081100Z 35004KT 03/M03 A3044 RMK A01 T00311027  RH  066%=      5-min Rain = 0
KTH1 081101Z 33004KT 03/M03 A3044 RMK A01 T00311028  RH  065%=      5-min Rain = 0
KTH1 081102Z 35005KT 03/M03 A3044 RMK A01 T00311028  RH  065%=      5-min Rain = 0
KTH1 081103Z 35004KT 03/M03 A3044 RMK A01 T00311026  RH  066%=      5-min Rain = 0
KTH1 081104Z 36006KT 03/M03 A3044 RMK A01 T00311025  RH  067%=      5-min Rain = 0
KTH1 081105Z 36004KT 03/M03 A3044 RMK A01 T00311027  RH  065%=      5-min Rain = 0
KTH1 081106Z 36004KT 03/M03 A3044 RMK A01 T00311027  RH  065%=      5-min Rain = 0
KTH1 081107Z 00004KT 03/M03 A3044 RMK A01 T00311027  RH  066%=      5-min Rain = 0
KTH1 081108Z 00005KT 03/M03 A3044 RMK A01 T00311029  RH  065%=      5-min Rain = 0
KTH1 081109Z 36005KT 03/M03 A3044 RMK A01 T00311030  RH  064%=      5-min Rain = 0
KTH1 081110Z 00003KT 03/M03 A3044 RMK A01 T00311030  RH  064%=      5-min Rain = 0
KTH1 081111Z 36005KT 03/M03 A3044 RMK A01 T00311027  RH  066%=      5-min Rain = 0
KTH1 081112Z 35004KT 03/M03 A3044 RMK A01 T00311029  RH  065%=      5-min Rain = 0
KTH1 081113Z 35004KT 03/M03 A3044 RMK A01 T00311028  RH  065%=      5-min Rain = 0
KTH1 081114Z 35005KT 03/M03 A3044 RMK A01 T00311027  RH  066%=      5-min Rain = 0
KTH1 081115Z 35005KT 03/M03 A3044 RMK A01 T00311029  RH  065%=      5-min Rain = 0
KTH1 081116Z 35005KT 03/M03 A3044 RMK A01 T00311029  RH  065%=      5-min Rain = 0
KTH1 081117Z 35006KT 03/M03 A3044 RMK A01 T00311031  RH  064%=      5-min Rain = 0
KTH1 081118Z 35004KT 03/M03 A3044 RMK A01 T00311032  RH  063%=      5-min Rain = 0
KTH1 081119Z 35003KT 03/M03 A3045 RMK A01 T00311029  RH  065%=      5-min Rain = 0
KTH1 081120Z 35004KT 03/M03 A3045 RMK A01 T00311027  RH  066%=      5-min Rain = 0
KTH1 081121Z 34003KT 03/M03 A3045 RMK A01 T00311025  RH  067%=      5-min Rain = 0
KTH1 081122Z 35004KT 03/M02 A3045 RMK A01 T00321024  RH  067%=      5-min Rain = 0
KTH1 081123Z 34003KT 03/M03 A3045 RMK A01 T00321025  RH  066%=      5-min Rain = 0
KTH1 081124Z 35004KT 03/M02 A3045 RMK A01 T00321024  RH  067%=      5-min Rain = 0
KTH1 081125Z 35004KT 03/M03 A3045 RMK A01 T00321026  RH  066%=      5-min Rain = 0
KTH1 081126Z 35003KT 03/M03 A3045 RMK A01 T00321027  RH  065%=      5-min Rain = 0
KTH1 081127Z 35003KT 03/M03 A3045 RMK A01 T00321027  RH  065%=      5-min Rain = 0
KTH1 081128Z 35004KT 03/M03 A3045 RMK A01 T00321028  RH  065%=      5-min Rain = 0
KTH1 081129Z 36006KT 03/M03 A3045 RMK A01 T00321028  RH  065%=      5-min Rain = 0
KTH1 081130Z 35003KT 03/M03 A3045 RMK A01 T00321029  RH  064%=      5-min Rain = 0
KTH1 081131Z 36004KT 03/M03 A3045 RMK A01 T00311027  RH  065%=      5-min Rain = 0
KTH1 081132Z 35005KT 03/M03 A3045 RMK A01 T00311030  RH  064%=      5-min Rain = 0
KTH1 081133Z 34004KT 03/M03 A3045 RMK A01 T00311030  RH  064%=      5-min Rain = 0
KTH1 081134Z 35005KT 03/M03 A3045 RMK A01 T00311030  RH  064%=      5-min Rain = 0
KTH1 081135Z 35004KT 03/M03 A3045 RMK A01 T00311031  RH  063%=      5-min Rain = 0
KTH1 081136Z 35006KT 03/M03 A3045 RMK A01 T00311031  RH  064%=      5-min Rain = 0
KTH1 081137Z 34005KT 03/M03 A3045 RMK A01 T00311032  RH  063%=      5-min Rain = 0
KTH1 081138Z 34004KT 03/M03 A3045 RMK A01 T00321029  RH  064%=      5-min Rain = 0
KTH1 081139Z 35003KT 03/M03 A3045 RMK A01 T00321028  RH  065%=      5-min Rain = 0
KTH1 081140Z 35004KT 03/M03 A3045 RMK A01 T00321026  RH  066%=      5-min Rain = 0
KTH1 081141Z 35005KT 03/M03 A3045 RMK A01 T00321027  RH  065%=      5-min Rain = 0
KTH1 081142Z 35006KT 03/M03 A3045 RMK A01 T00321027  RH  065%=      5-min Rain = 0
KTH1 081143Z 35007KT 03/M03 A3045 RMK A01 T00321031  RH  064%=      5-min Rain = 0
KTH1 081144Z 35004KT 03/M03 A3045 RMK A01 T00321031  RH  063%=      5-min Rain = 0
KTH1 081145Z 35005KT 03/M03 A3045 RMK A01 T00321028  RH  065%=      5-min Rain = 0
KTH1 081146Z 34004KT 03/M03 A3045 RMK A01 T00321029  RH  064%=      5-min Rain = 0
KTH1 081147Z 34004KT 03/M03 A3045 RMK A01 T00321026  RH  066%=      5-min Rain = 0
KTH1 081148Z 35005KT 03/M03 A3045 RMK A01 T00321026  RH  066%=      5-min Rain = 0
KTH1 081149Z 35004KT 03/M03 A3045 RMK A01 T00321027  RH  065%=      5-min Rain = 0
KTH1 081150Z 34006KT 03/M03 A3045 RMK A01 T00321028  RH  065%=      5-min Rain = 0
KTH1 081151Z 33004KT 03/M03 A3045 RMK A01 T00321028  RH  065%=      5-min Rain = 0
KTH1 081152Z 34003KT 03/M03 A3045 RMK A01 T00321027  RH  066%=      5-min Rain = 0
KTH1 081153Z 35005KT 03/M03 A3045 RMK A01 T00321027  RH  065%=      5-min Rain = 0
KTH1 081154Z 35004KT 03/M03 A3045 RMK A01 T00321028  RH  065%=      5-min Rain = 0
KTH1 081155Z 35004KT 03/M03 A3045 RMK A01 T00321029  RH  064%=      5-min Rain = 0
KTH1 081156Z 35004KT 03/M03 A3045 RMK A01 T00321028  RH  065%=      5-min Rain = 0
KTH1 081157Z 35005KT 03/M03 A3045 RMK A01 T00321028  RH  065%=      5-min Rain = 0
KTH1 081158Z 35007KT 03/M03 A3045 RMK A01 T00321029  RH  064%=      5-min Rain = 0
KTH1 081159Z 36006KT 03/M03 A3045 RMK A01 T00321029  RH  065%=      5-min Rain = 0
KTH1 081200Z 36006KT 03/M03 A3045 RMK A01 T00321031  RH  063%=      5-min Rain = 0
KTH1 081201Z 35004KT 03/M03 A3045 RMK A01 T00321032  RH  063%=      5-min Rain = 0
KTH1 081202Z 34004KT 03/M03 A3045 RMK A01 T00321031  RH  064%=      5-min Rain = 0
KTH1 081203Z 35004KT 03/M03 A3045 RMK A01 T00321030  RH  064%=      5-min Rain = 0
KTH1 081204Z 36005KT 03/M03 A3045 RMK A01 T00321030  RH  064%=      5-min Rain = 0
KTH1 081205Z 01003KT 03/M03 A3045 RMK A01 T00321030  RH  064%=      5-min Rain = 0
KTH1 081206Z 00003KT 03/M03 A3045 RMK A01 T00321029  RH  065%=      5-min Rain = 0
KTH1 081207Z 35003KT 03/M03 A3045 RMK A01 T00321029  RH  065%=      5-min Rain = 0
KTH1 081208Z 35003KT 03/M03 A3045 RMK A01 T00321028  RH  065%=      5-min Rain = 0
KTH1 081209Z 36005KT 03/M03 A3045 RMK A01 T00321028  RH  065%=      5-min Rain = 0
KTH1 081210Z 00005KT 03/M03 A3045 RMK A01 T00321029  RH  064%=      5-min Rain = 0
KTH1 081211Z 35004KT 03/M03 A3045 RMK A01 T00321031  RH  064%=      5-min Rain = 0
KTH1 081212Z 36004KT 03/M03 A3045 RMK A01 T00311031  RH  064%=      5-min Rain = 0
KTH1 081213Z 36004KT 03/M03 A3045 RMK A01 T00311030  RH  064%=      5-min Rain = 0
KTH1 081214Z 35003KT 03/M03 A3045 RMK A01 T00311031  RH  064%=      5-min Rain = 0
KTH1 081215Z 01003KT 03/M03 A3045 RMK A01 T00321029  RH  065%=      5-min Rain = 0
KTH1 081216Z 35003KT 03/M03 A3045 RMK A01 T00311031  RH  064%=      5-min Rain = 0
KTH1 081217Z 35004KT 03/M03 A3045 RMK A01 T00311030  RH  064%=      5-min Rain = 0
KTH1 081218Z 36005KT 03/M03 A3045 RMK A01 T00311031  RH  063%=      5-min Rain = 0
KTH1 081219Z 35005KT 03/M03 A3045 RMK A01 T00311032  RH  063%=      5-min Rain = 0
KTH1 081220Z 35005KT 03/M03 A3045 RMK A01 T00321033  RH  062%=      5-min Rain = 0
KTH1 081221Z 36005KT 03/M03 A3046 RMK A01 T00311033  RH  063%=      5-min Rain = 0
KTH1 081222Z 35005KT 03/M03 A3046 RMK A01 T00311034  RH  062%=      5-min Rain = 0
KTH1 081223Z 00005KT 03/M03 A3045 RMK A01 T00321034  RH  062%=      5-min Rain = 0
KTH1 081224Z 00004KT 03/M03 A3045 RMK A01 T00311033  RH  062%=      5-min Rain = 0
KTH1 081225Z 00004KT 03/M03 A3045 RMK A01 T00311032  RH  063%=      5-min Rain = 0
KTH1 081226Z 01003KT 03/M03 A3045 RMK A01 T00311030  RH  064%=      5-min Rain = 0
KTH1 081227Z 01003KT 03/M03 A3045 RMK A01 T00311031  RH  064%=      5-min Rain = 0
KTH1 081228Z 01004KT 03/M03 A3045 RMK A01 T00311031  RH  064%=      5-min Rain = 0
KTH1 081229Z 02004KT 03/M03 A3045 RMK A01 T00311031  RH  064%=      5-min Rain = 0
KTH1 081230Z 01003KT 03/M03 A3045 RMK A01 T00311030  RH  064%=      5-min Rain = 0
KTH1 081231Z 01004KT 03/M03 A3045 RMK A01 T00311029  RH  064%=      5-min Rain = 0
KTH1 081232Z 00005KT 03/M03 A3045 RMK A01 T00311029  RH  065%=      5-min Rain = 0
KTH1 081233Z 01005KT 03/M03 A3045 RMK A01 T00311032  RH  063%=      5-min Rain = 0
KTH1 081234Z 01005KT 03/M03 A3045 RMK A01 T00311033  RH  063%=      5-min Rain = 0
KTH1 081235Z 00003KT 03/M03 A3045 RMK A01 T00311034  RH  062%=      5-min Rain = 0
KTH1 081236Z 02005KT 03/M03 A3044 RMK A01 T00311034  RH  063%=      5-min Rain = 0
KTH1 081237Z 02003KT 03/M04 A3044 RMK A01 T00311035  RH  062%=      5-min Rain = 0
KTH1 081238Z 03003KT 03/M03 A3044 RMK A01 T00311032  RH  063%=      5-min Rain = 0
KTH1 081239Z 04003KT 03/M03 A3044 RMK A01 T00311032  RH  063%=      5-min Rain = 0
KTH1 081240Z 02005KT 03/M03 A3044 RMK A01 T00311031  RH  064%=      5-min Rain = 0
KTH1 081241Z 02003KT 03/M03 A3044 RMK A01 T00311032  RH  063%=      5-min Rain = 0
KTH1 081242Z 02003KT 03/M03 A3044 RMK A01 T00311032  RH  063%=      5-min Rain = 0
KTH1 081243Z 02004KT 03/M03 A3044 RMK A01 T00311031  RH  064%=      5-min Rain = 0
KTH1 081244Z 02003KT 03/M03 A3045 RMK A01 T00311030  RH  064%=      5-min Rain = 0
KTH1 081245Z 02004KT 03/M03 A3045 RMK A01 T00311032  RH  063%=      5-min Rain = 0
KTH1 081246Z 01005KT 03/M03 A3045 RMK A01 T00311033  RH  063%=      5-min Rain = 0
KTH1 081247Z 01005KT 03/M03 A3045 RMK A01 T00311033  RH  063%=      5-min Rain = 0
KTH1 081248Z 35004KT 03/M03 A3045 RMK A01 T00311033  RH  063%=      5-min Rain = 0
KTH1 081249Z 35005KT 03/M03 A3045 RMK A01 T00311031  RH  064%=      5-min Rain = 0
KTH1 081250Z 36004KT 03/M03 A3045 RMK A01 T00311032  RH  063%=      5-min Rain = 0
KTH1 081251Z 35004KT 03/M03 A3045 RMK A01 T00311031  RH  064%=      5-min Rain = 0
KTH1 081252Z 35005KT 03/M03 A3045 RMK A01 T00311029  RH  064%=      5-min Rain = 0
KTH1 081253Z 35005KT 03/M03 A3045 RMK A01 T00311030  RH  064%=      5-min Rain = 0
KTH1 081254Z 36003KT 03/M03 A3045 RMK A01 T00311031  RH  064%=      5-min Rain = 0
KTH1 081255Z 35004KT 03/M03 A3045 RMK A01 T00311031  RH  064%=      5-min Rain = 0
KTH1 081256Z 34003KT 03/M03 A3045 RMK A01 T00321030  RH  064%=      5-min Rain = 0
KTH1 081257Z 35004KT 03/M03 A3045 RMK A01 T00311029  RH  065%=      5-min Rain = 0
KTH1 081258Z 34002KT 03/M03 A3045 RMK A01 T00311029  RH  065%=      5-min Rain = 0
KTH1 081259Z 34003KT 03/M03 A3045 RMK A01 T00321028  RH  065%=      5-min Rain = 0
KTH1 081300Z 35004KT 03/M03 A3045 RMK A01 T00321026  RH  066%=      5-min Rain = 0
KTH1 081301Z 00004KT 03/M03 A3045 RMK A01 T00321028  RH  065%=      5-min Rain = 0
KTH1 081302Z 01003KT 03/M03 A3045 RMK A01 T00321029  RH  064%=      5-min Rain = 0
KTH1 081303Z 01005KT 03/M03 A3045 RMK A01 T00321031  RH  064%=      5-min Rain = 0
KTH1 081304Z 01004KT 03/M03 A3045 RMK A01 T00321032  RH  063%=      5-min Rain = 0
KTH1 081305Z 34003KT 03/M03 A3045 RMK A01 T00311031  RH  064%=      5-min Rain = 0
KTH1 081306Z 35003KT 03/M03 A3045 RMK A01 T00321029  RH  064%=      5-min Rain = 0
KTH1 081307Z 36004KT 03/M03 A3045 RMK A01 T00321029  RH  065%=      5-min Rain = 0
KTH1 081308Z 00003KT 03/M03 A3045 RMK A01 T00311029  RH  065%=      5-min Rain = 0
KTH1 081309Z 34002KT 03/M03 A3045 RMK A01 T00311028  RH  065%=      5-min Rain = 0
KTH1 081310Z 35004KT 03/M03 A3045 RMK A01 T00321029  RH  065%=      5-min Rain = 0
KTH1 081311Z 35005KT 03/M03 A3045 RMK A01 T00321029  RH  065%=      5-min Rain = 0
KTH1 081312Z 35005KT 03/M03 A3045 RMK A01 T00321030  RH  064%=      5-min Rain = 0
KTH1 081313Z 36004KT 03/M03 A3045 RMK A01 T00321031  RH  064%=      5-min Rain = 0
KTH1 081314Z 01004KT 03/M03 A3045 RMK A01 T00321030  RH  064%=      5-min Rain = 0
KTH1 081315Z 36003KT 03/M03 A3045 RMK A01 T00321030  RH  064%=      5-min Rain = 0
KTH1 081316Z 35003KT 03/M03 A3045 RMK A01 T00321029  RH  064%=      5-min Rain = 0
KTH1 081317Z 35005KT 03/M03 A3045 RMK A01 T00321030  RH  064%=      5-min Rain = 0
KTH1 081318Z 35002KT 03/M03 A3045 RMK A01 T00321028  RH  065%=      5-min Rain = 0
KTH1 081319Z 33002KT 03/M02 A3046 RMK A01 T00331024  RH  067%=      5-min Rain = 0
KTH1 081320Z 35004KT 03/M02 A3046 RMK A01 T00331024  RH  066%=      5-min Rain = 0
KTH1 081321Z 34003KT 03/M03 A3046 RMK A01 T00331027  RH  065%=      5-min Rain = 0
KTH1 081322Z 35004KT 03/M03 A3046 RMK A01 T00331028  RH  065%=      5-min Rain = 0
KTH1 081323Z 34003KT 03/M03 A3046 RMK A01 T00331029  RH  064%=      5-min Rain = 0
KTH1 081324Z 34003KT 03/M03 A3046 RMK A01 T00331027  RH  065%=      5-min Rain = 0
KTH1 081325Z 34003KT 03/M02 A3046 RMK A01 T00331024  RH  066%=      5-min Rain = 0
KTH1 081326Z 35004KT 03/M02 A3046 RMK A01 T00331024  RH  066%=      5-min Rain = 0
KTH1 081327Z 34004KT 03/M03 A3046 RMK A01 T00331027  RH  065%=      5-min Rain = 0
KTH1 081328Z 34002KT 03/M03 A3046 RMK A01 T00331025  RH  066%=      5-min Rain = 0
KTH1 081329Z 34004KT 03/M02 A3046 RMK A01 T00341023  RH  066%=      5-min Rain = 0
KTH1 081330Z 34005KT 03/M03 A3046 RMK A01 T00341026  RH  065%=      5-min Rain = 0
KTH1 081331Z 35005KT 03/M03 A3046 RMK A01 T00331028  RH  064%=      5-min Rain = 0
KTH1 081332Z 35006KT 03/M03 A3046 RMK A01 T00341027  RH  064%=      5-min Rain = 0
KTH1 081333Z 34006KT 03/M03 A3046 RMK A01 T00341030  RH  063%=      5-min Rain = 0
KTH1 081334Z 34005KT 03/M03 A3046 RMK A01 T00341030  RH  063%=      5-min Rain = 0
KTH1 081335Z 34006KT 03/M03 A3046 RMK A01 T00341030  RH  063%=      5-min Rain = 0
KTH1 081336Z 34005KT 03/M03 A3046 RMK A01 T00341029  RH  063%=      5-min Rain = 0
KTH1 081337Z 36005KT 03/M03 A3046 RMK A01 T00341031  RH  062%=      5-min Rain = 0
KTH1 081338Z 36007KT 03/M03 A3046 RMK A01 T00341031  RH  063%=      5-min Rain = 0
KTH1 081339Z 36005KT 03/M03 A3045 RMK A01 T00341033  RH  062%=      5-min Rain = 0
KTH1 081340Z 34004KT 03/M03 A3045 RMK A01 T00341031  RH  062%=      5-min Rain = 0
KTH1 081341Z 36006KT 03/M03 A3045 RMK A01 T00341030  RH  063%=      5-min Rain = 0
KTH1 081342Z 35006KT 03/M04 A3045 RMK A01 T00341035  RH  061%=      5-min Rain = 0
KTH1 081343Z 00006KT 03/M04 A3045 RMK A01 T00341036  RH  060%=      5-min Rain = 0
KTH1 081344Z 36005KT 03/M04 A3046 RMK A01 T00341037  RH  060%=      5-min Rain = 0
KTH1 081345Z 36005KT 03/M04 A3046 RMK A01 T00341037  RH  060%=      5-min Rain = 0
KTH1 081346Z 35005KT 03/M04 A3046 RMK A01 T00341036  RH  060%=      5-min Rain = 0
KTH1 081347Z 35004KT 03/M03 A3046 RMK A01 T00341034  RH  061%=      5-min Rain = 0
KTH1 081348Z 34002KT 03/M03 A3046 RMK A01 T00341032  RH  062%=      5-min Rain = 0
KTH1 081349Z 36004KT 03/M03 A3046 RMK A01 T00341028  RH  064%=      5-min Rain = 0
KTH1 081350Z 35002KT 04/M03 A3046 RMK A01 T00351029  RH  063%=      5-min Rain = 0
KTH1 081351Z 36006KT 04/M03 A3046 RMK A01 T00351029  RH  063%=      5-min Rain = 0
KTH1 081352Z 36004KT 04/M03 A3046 RMK A01 T00351031  RH  062%=      5-min Rain = 0
KTH1 081353Z 36004KT 04/M03 A3046 RMK A01 T00351031  RH  062%=      5-min Rain = 0
KTH1 081354Z 36005KT 04/M03 A3046 RMK A01 T00351030  RH  062%=      5-min Rain = 0
KTH1 081355Z 36004KT 04/M03 A3046 RMK A01 T00351031  RH  062%=      5-min Rain = 0
KTH1 081356Z 01005KT 04/M03 A3046 RMK A01 T00351034  RH  061%=      5-min Rain = 0
KTH1 081357Z 36005KT 04/M04 A3046 RMK A01 T00351035  RH  060%=      5-min Rain = 0
KTH1 081358Z 00004KT 04/M04 A3046 RMK A01 T00351035  RH  060%=      5-min Rain = 0
KTH1 081359Z 01006KT 04/M04 A3046 RMK A01 T00351035  RH  060%=      5-min Rain = 0
KTH1 081400Z 00006KT 04/M04 A3046 RMK A01 T00351037  RH  059%=      5-min Rain = 0
KTH1 081401Z 36005KT 04/M04 A3046 RMK A01 T00351037  RH  059%=      5-min Rain = 0
KTH1 081402Z 36004KT 04/M04 A3046 RMK A01 T00351037  RH  059%=      5-min Rain = 0
KTH1 081403Z 01003KT 04/M04 A3046 RMK A01 T00351036  RH  059%=      5-min Rain = 0
KTH1 081404Z 36004KT 04/M04 A3046 RMK A01 T00351035  RH  060%=      5-min Rain = 0
KTH1 081405Z 36005KT 04/M03 A3046 RMK A01 T00351034  RH  060%=      5-min Rain = 0
KTH1 081406Z 00004KT 04/M04 A3045 RMK A01 T00361036  RH  060%=      5-min Rain = 0
KTH1 081407Z 01005KT 04/M04 A3045 RMK A01 T00361037  RH  059%=      5-min Rain = 0
KTH1 081408Z 00005KT 04/M04 A3045 RMK A01 T00361037  RH  059%=      5-min Rain = 0
KTH1 081409Z 36004KT 04/M04 A3045 RMK A01 T00361037  RH  059%=      5-min Rain = 0
KTH1 081410Z 02003KT 04/M04 A3045 RMK A01 T00361038  RH  058%=      5-min Rain = 0
KTH1 081411Z 35003KT 04/M04 A3045 RMK A01 T00351038  RH  059%=      5-min Rain = 0
KTH1 081412Z 00004KT 04/M04 A3045 RMK A01 T00361038  RH  059%=      5-min Rain = 0
KTH1 081413Z 02002KT 04/M04 A3045 RMK A01 T00351038  RH  059%=      5-min Rain = 0
KTH1 081414Z 01004KT 04/M04 A3046 RMK A01 T00361035  RH  060%=      5-min Rain = 0
KTH1 081415Z 35004KT 04/M04 A3046 RMK A01 T00361039  RH  058%=      5-min Rain = 0
KTH1 081416Z 00004KT 04/M04 A3046 RMK A01 T00361036  RH  059%=      5-min Rain = 0
KTH1 081417Z 36006KT 04/M04 A3046 RMK A01 T00371037  RH  059%=      5-min Rain = 0
KTH1 081418Z 36004KT 04/M04 A3046 RMK A01 T00371039  RH  058%=      5-min Rain = 0
KTH1 081419Z 35005KT 04/M04 A3046 RMK A01 T00371037  RH  058%=      5-min Rain = 0
KTH1 081420Z 35006KT 04/M04 A3046 RMK A01 T00371038  RH  058%=      5-min Rain = 0
KTH1 081421Z 35005KT 04/M04 A3046 RMK A01 T00371040  RH  057%=      5-min Rain = 0
KTH1 081422Z 35006KT 04/M04 A3046 RMK A01 T00371039  RH  057%=      5-min Rain = 0
KTH1 081423Z 35004KT 04/M04 A3046 RMK A01 T00381040  RH  057%=      5-min Rain = 0
KTH1 081424Z 00003KT 04/M04 A3046 RMK A01 T00381036  RH  059%=      5-min Rain = 0
KTH1 081425Z 36005KT 04/M03 A3047 RMK A01 T00391034  RH  059%=      5-min Rain = 0
KTH1 081426Z 35005KT 04/M04 A3047 RMK A01 T00391036  RH  058%=      5-min Rain = 0
KTH1 081427Z 00005KT 04/M04 A3047 RMK A01 T00391036  RH  058%=      5-min Rain = 0
KTH1 081428Z 00004KT 04/M04 A3047 RMK A01 T00391037  RH  058%=      5-min Rain = 0
KTH1 081429Z 01006KT 04/M03 A3047 RMK A01 T00391034  RH  059%=      5-min Rain = 0
KTH1 081430Z 00006KT 04/M04 A3047 RMK A01 T00391036  RH  058%=      5-min Rain = 0
KTH1 081431Z 35007KT 04/M04 A3047 RMK A01 T00391040  RH  057%=      5-min Rain = 0
KTH1 081432Z 35007KT 04/M04 A3047 RMK A01 T00381038  RH  057%=      5-min Rain = 0
KTH1 081433Z 34006KT 04/M04 A3047 RMK A01 T00381040  RH  057%=      5-min Rain = 0
KTH1 081434Z 36006KT 04/M04 A3046 RMK A01 T00381040  RH  057%=      5-min Rain = 0
KTH1 081435Z 01005KT 04/M04 A3047 RMK A01 T00381037  RH  058%=      5-min Rain = 0
KTH1 081436Z 01004KT 04/M04 A3047 RMK A01 T00381036  RH  058%=      5-min Rain = 0
KTH1 081437Z 01005KT 04/M04 A3047 RMK A01 T00391039  RH  057%=      5-min Rain = 0
KTH1 081438Z 01005KT 04/M04 A3047 RMK A01 T00391039  RH  057%=      5-min Rain = 0
KTH1 081439Z 00007KT 04/M04 A3047 RMK A01 T00391041  RH  056%=      5-min Rain = 0
KTH1 081440Z 35005KT 04/M04 A3047 RMK A01 T00391040  RH  056%=      5-min Rain = 0
KTH1 081441Z 00006KT 04/M04 A3047 RMK A01 T00391037  RH  058%=      5-min Rain = 0
KTH1 081442Z 00006KT 04/M04 A3047 RMK A01 T00391038  RH  057%=      5-min Rain = 0
KTH1 081443Z 35006KT 04/M04 A3047 RMK A01 T00391035  RH  058%=      5-min Rain = 0
KTH1 081444Z 36004KT 04/M03 A3047 RMK A01 T00391034  RH  059%=      5-min Rain = 0
KTH1 081445Z 00005KT 04/M03 A3047 RMK A01 T00401031  RH  060%=      5-min Rain = 0
KTH1 081446Z 34004KT 04/M03 A3047 RMK A01 T00401028  RH  061%=      5-min Rain = 0
KTH1 081447Z 33004KT 04/M02 A3047 RMK A01 T00411023  RH  063%=      5-min Rain = 0
KTH1 081448Z 34005KT 04/M03 A3047 RMK A01 T00421026  RH  061%=      5-min Rain = 0
KTH1 081449Z 34003KT 04/M03 A3047 RMK A01 T00421028  RH  060%=      5-min Rain = 0
KTH1 081450Z 36003KT 04/M03 A3047 RMK A01 T00421026  RH  061%=      5-min Rain = 0
KTH1 081451Z 35004KT 04/M03 A3046 RMK A01 T00431025  RH  061%=      5-min Rain = 0
KTH1 081452Z 33003KT 04/M03 A3046 RMK A01 T00431026  RH  060%=      5-min Rain = 0
KTH1 081453Z 33005KT 04/M03 A3046 RMK A01 T00431026  RH  060%=      5-min Rain = 0
KTH1 081454Z 34002KT 04/M03 A3046 RMK A01 T00441026  RH  061%=      5-min Rain = 0
KTH1 081455Z 34002KT 04/M02 A3046 RMK A01 T00431024  RH  061%=      5-min Rain = 0
KTH1 081456Z 02002KT 04/M02 A3046 RMK A01 T00441022  RH  062%=      5-min Rain = 0
KTH1 081457Z 03003KT 05/M02 A3046 RMK A01 T00451023  RH  061%=      5-min Rain = 0
KTH1 081458Z 02003KT 05/M03 A3046 RMK A01 T00461025  RH  060%=      5-min Rain = 0
KTH1 081459Z 05004KT 05/M03 A3046 RMK A01 T00461027  RH  059%=      5-min Rain = 0
KTH1 081500Z 05004KT 05/M03 A3047 RMK A01 T00461026  RH  059%=      5-min Rain = 0
KTH1 081501Z 04004KT 05/M03 A3047 RMK A01 T00461026  RH  060%=      5-min Rain = 0
KTH1 081502Z 03005KT 05/M03 A3047 RMK A01 T00461026  RH  060%=      5-min Rain = 0
KTH1 081503Z 02006KT 05/M03 A3047 RMK A01 T00461026  RH  060%=      5-min Rain = 0
KTH1 081504Z 01006KT 05/M03 A3047 RMK A01 T00461029  RH  058%=      5-min Rain = 0
KTH1 081505Z 01005KT 05/M03 A3047 RMK A01 T00451029  RH  059%=      5-min Rain = 0
KTH1 081506Z 02004KT 05/M03 A3047 RMK A01 T00451026  RH  060%=      5-min Rain = 0
KTH1 081507Z 02005KT 05/M03 A3047 RMK A01 T00451028  RH  059%=      5-min Rain = 0
KTH1 081508Z 36004KT 04/M03 A3047 RMK A01 T00441028  RH  059%=      5-min Rain = 0
KTH1 081509Z 34003KT 04/M03 A3047 RMK A01 T00431025  RH  061%=      5-min Rain = 0
KTH1 081510Z 01004KT 05/M02 A3047 RMK A01 T00451023  RH  062%=      5-min Rain = 0
KTH1 081511Z 01005KT 05/M03 A3047 RMK A01 T00451027  RH  059%=      5-min Rain = 0
KTH1 081512Z 02003KT 05/M03 A3047 RMK A01 T00451026  RH  060%=      5-min Rain = 0
KTH1 081513Z 01004KT 05/M02 A3047 RMK A01 T00451024  RH  061%=      5-min Rain = 0
KTH1 081514Z 34002KT 05/M03 A3047 RMK A01 T00461025  RH  060%=      5-min Rain = 0
KTH1 081515Z 01003KT 05/M02 A3047 RMK A01 T00471023  RH  061%=      5-min Rain = 0
KTH1 081516Z 35004KT 05/M02 A3047 RMK A01 T00481024  RH  060%=      5-min Rain = 0
KTH1 081517Z 36005KT 05/M03 A3047 RMK A01 T00471027  RH  058%=      5-min Rain = 0
KTH1 081518Z 36006KT 05/M03 A3047 RMK A01 T00461027  RH  059%=      5-min Rain = 0
KTH1 081519Z 01004KT 05/M03 A3047 RMK A01 T00451025  RH  060%=      5-min Rain = 0
KTH1 081520Z 02004KT 05/M03 A3047 RMK A01 T00451026  RH  060%=      5-min Rain = 0
KTH1 081521Z 01004KT 05/M02 A3047 RMK A01 T00461023  RH  061%=      5-min Rain = 0
KTH1 081522Z 01002KT 05/M02 A3047 RMK A01 T00471022  RH  061%=      5-min Rain = 0
KTH1 081523Z 00005KT 05/M02 A3048 RMK A01 T00481023  RH  060%=      5-min Rain = 0
KTH1 081524Z 02005KT 05/M03 A3048 RMK A01 T00491026  RH  058%=      5-min Rain = 0
KTH1 081525Z 01004KT 05/M02 A3048 RMK A01 T00481024  RH  059%=      5-min Rain = 0
KTH1 081526Z 35005KT 05/M02 A3048 RMK A01 T00491023  RH  060%=      5-min Rain = 0
KTH1 081527Z 01006KT 05/M02 A3048 RMK A01 T00501024  RH  059%=      5-min Rain = 0
KTH1 081528Z 34004KT 05/M02 A3048 RMK A01 T00501023  RH  059%=      5-min Rain = 0
KTH1 081529Z 02004KT 05/M02 A3048 RMK A01 T00501020  RH  060%=      5-min Rain = 0
KTH1 081530Z 35004KT 05/M02 A3048 RMK A01 T00511023  RH  059%=      5-min Rain = 0
KTH1 081531Z 02006KT 05/M02 A3048 RMK A01 T00511022  RH  059%=      5-min Rain = 0
KTH1 081532Z 03005KT 05/M02 A3047 RMK A01 T00501023  RH  059%=      5-min Rain = 0
KTH1 081533Z 35003KT 05/M02 A3047 RMK A01 T00501022  RH  059%=      5-min Rain = 0
KTH1 081534Z 01005KT 05/M02 A3048 RMK A01 T00501021  RH  060%=      5-min Rain = 0
KTH1 081535Z 34004KT 05/M02 A3048 RMK A01 T00511022  RH  059%=      5-min Rain = 0
KTH1 081536Z 34005KT 05/M02 A3048 RMK A01 T00511021  RH  059%=      5-min Rain = 0
KTH1 081537Z 35005KT 05/M02 A3048 RMK A01 T00511022  RH  059%=      5-min Rain = 0
KTH1 081538Z 35006KT 05/M02 A3048 RMK A01 T00511019  RH  060%=      5-min Rain = 0
KTH1 081539Z 35006KT 05/M02 A3048 RMK A01 T00511023  RH  059%=      5-min Rain = 0
KTH1 081540Z 34003KT 05/M02 A3047 RMK A01 T00501023  RH  059%=      5-min Rain = 0
KTH1 081541Z 01003KT 05/M03 A3047 RMK A01 T00501025  RH  058%=      5-min Rain = 0
KTH1 081542Z 35003KT 05/M03 A3047 RMK A01 T00501025  RH  058%=      5-min Rain = 0
KTH1 081543Z 36003KT 05/M03 A3047 RMK A01 T00501025  RH  058%=      5-min Rain = 0
KTH1 081544Z 00003KT 05/M02 A3047 RMK A01 T00501023  RH  059%=      5-min Rain = 0
KTH1 081545Z 02004KT 05/M02 A3047 RMK A01 T00521018  RH  061%=      5-min Rain = 0
KTH1 081546Z 36004KT 05/M02 A3047 RMK A01 T00541016  RH  060%=      5-min Rain = 0
KTH1 081547Z 36004KT 06/M02 A3047 RMK A01 T00551017  RH  060%=      5-min Rain = 0
KTH1 081548Z 35004KT 06/M02 A3047 RMK A01 T00551022  RH  057%=      5-min Rain = 0
KTH1 081549Z 32004KT 05/M02 A3047 RMK A01 T00541022  RH  058%=      5-min Rain = 0
KTH1 081550Z 32005KT 05/M02 A3047 RMK A01 T00531023  RH  058%=      5-min Rain = 0
KTH1 081551Z 32004KT 05/M02 A3047 RMK A01 T00531022  RH  058%=      5-min Rain = 0
KTH1 081552Z 33004KT 05/M02 A3047 RMK A01 T00531020  RH  059%=      5-min Rain = 0
KTH1 081553Z 34005KT 05/M02 A3047 RMK A01 T00541019  RH  059%=      5-min Rain = 0
KTH1 081554Z 34003KT 05/M02 A3047 RMK A01 T00541020  RH  059%=      5-min Rain = 0
KTH1 081555Z 34002KT 05/M02 A3047 RMK A01 T00541017  RH  060%=      5-min Rain = 0
KTH1 081556Z 34004G9KT 06/M02 A3047 RMK A01 T00551017  RH  060%=      5-min Rain = 0
KTH1 081557Z 35005KT 06/M02 A3047 RMK A01 T00551019  RH  059%=      5-min Rain = 0
KTH1 081558Z 35006KT 06/M02 A3047 RMK A01 T00551017  RH  060%=      5-min Rain = 0
KTH1 081559Z 35007KT 06/M02 A3047 RMK A01 T00551020  RH  058%=      5-min Rain = 0
KTH1 081600Z 35005KT 05/M02 A3047 RMK A01 T00541020  RH  059%=      5-min Rain = 0
KTH1 081601Z 01004KT 05/M02 A3047 RMK A01 T00541019  RH  059%=      5-min Rain = 0
KTH1 081602Z 02005KT 05/M02 A3047 RMK A01 T00531019  RH  060%=      5-min Rain = 0
KTH1 081603Z 02005KT 05/M02 A3047 RMK A01 T00531019  RH  060%=      5-min Rain = 0
KTH1 081604Z 02005KT 05/M02 A3047 RMK A01 T00531017  RH  061%=      5-min Rain = 0
KTH1 081605Z 03006KT 05/M02 A3047 RMK A01 T00531016  RH  061%=      5-min Rain = 0
KTH1 081606Z 02007KT 05/M02 A3047 RMK A01 T00531015  RH  062%=      5-min Rain = 0
KTH1 081607Z 01007KT 05/M02 A3047 RMK A01 T00521019  RH  060%=      5-min Rain = 0
KTH1 081608Z 01006KT 05/M02 A3047 RMK A01 T00521020  RH  060%=      5-min Rain = 0
KTH1 081609Z 02006KT 05/M02 A3047 RMK A01 T00511021  RH  060%=      5-min Rain = 0
KTH1 081610Z 03004KT 05/M02 A3047 RMK A01 T00511021  RH  060%=      5-min Rain = 0
KTH1 081611Z 01004KT 05/M02 A3047 RMK A01 T00511020  RH  060%=      5-min Rain = 0
KTH1 081612Z 02005KT 05/M02 A3047 RMK A01 T00521019  RH  060%=      5-min Rain = 0
KTH1 081613Z 04005KT 05/M01 A3047 RMK A01 T00541014  RH  061%=      5-min Rain = 0
KTH1 081614Z 02005KT 06/M02 A3047 RMK A01 T00551017  RH  060%=      5-min Rain = 0
KTH1 081615Z 02005KT 06/M02 A3047 RMK A01 T00551018  RH  059%=      5-min Rain = 0
KTH1 081616Z 04006KT 05/M02 A3047 RMK A01 T00541019  RH  059%=      5-min Rain = 0
KTH1 081617Z 05005KT 05/M02 A3047 RMK A01 T00531021  RH  059%=      5-min Rain = 0
KTH1 081618Z 05003KT 05/M02 A3046 RMK A01 T00531020  RH  060%=      5-min Rain = 0
KTH1 081619Z 35002KT 05/M02 A3046 RMK A01 T00531016  RH  061%=      5-min Rain = 0
KTH1 081620Z 33004KT 06/M01 A3047 RMK A01 T00551014  RH  061%=      5-min Rain = 0
KTH1 081621Z 01003KT 06/M01 A3047 RMK A01 T00561014  RH  061%=      5-min Rain = 0
KTH1 081622Z 00005KT 06/M01 A3047 RMK A01 T00591010  RH  061%=      5-min Rain = 0
KTH1 081623Z 00004KT 06/M01 A3047 RMK A01 T00601013  RH  060%=      5-min Rain = 0
KTH1 081624Z 36005KT 06/M02 A3047 RMK A01 T00591015  RH  059%=      5-min Rain = 0
KTH1 081625Z 03006KT 06/M02 A3047 RMK A01 T00571016  RH  059%=      5-min Rain = 0
KTH1 081626Z 04004KT 06/M01 A3047 RMK A01 T00571014  RH  060%=      5-min Rain = 0
KTH1 081627Z 04006KT 06/M01 A3046 RMK A01 T00571013  RH  061%=      5-min Rain = 0
KTH1 081628Z 01004KT 06/M02 A3046 RMK A01 T00571015  RH  060%=      5-min Rain = 0
KTH1 081629Z 01002KT 06/M02 A3046 RMK A01 T00571016  RH  059%=      5-min Rain = 0
KTH1 081630Z 36003KT 06/M02 A3046 RMK A01 T00571015  RH  060%=      5-min Rain = 0
KTH1 081631Z 34004KT 06/M01 A3047 RMK A01 T00591011  RH  061%=      5-min Rain = 0
KTH1 081632Z 33005KT 06/M01 A3047 RMK A01 T00621006  RH  062%=      5-min Rain = 0
KTH1 081633Z 33005KT 06/M01 A3046 RMK A01 T00631008  RH  060%=      5-min Rain = 0
KTH1 081634Z 32005KT 06/M01 A3046 RMK A01 T00621012  RH  059%=      5-min Rain = 0
KTH1 081635Z 32005KT 06/M01 A3046 RMK A01 T00611012  RH  060%=      5-min Rain = 0
KTH1 081636Z 32003KT 06/M01 A3046 RMK A01 T00601011  RH  060%=      5-min Rain = 0
KTH1 081637Z 31004KT 06/M01 A3046 RMK A01 T00601014  RH  059%=      5-min Rain = 0
KTH1 081638Z 32005KT 06/M01 A3046 RMK A01 T00591013  RH  060%=      5-min Rain = 0
KTH1 081639Z 32005KT 06/M01 A3046 RMK A01 T00591012  RH  060%=      5-min Rain = 0
KTH1 081640Z 32004KT 06/M01 A3046 RMK A01 T00601009  RH  061%=      5-min Rain = 0
KTH1 081641Z 29002KT 06/M01 A3046 RMK A01 T00611007  RH  061%=      5-min Rain = 0
KTH1 081642Z 31004KT 06/M01 A3046 RMK A01 T00631006  RH  061%=      5-min Rain = 0
KTH1 081643Z 02003KT 06/M01 A3046 RMK A01 T00641009  RH  060%=      5-min Rain = 0
KTH1 081644Z 02005KT 07/M01 A3046 RMK A01 T00651009  RH  059%=      5-min Rain = 0
KTH1 081645Z 00004KT 07/M01 A3046 RMK A01 T00651012  RH  058%=      5-min Rain = 0
KTH1 081646Z 34003KT 07/M01 A3046 RMK A01 T00651012  RH  058%=      5-min Rain = 0
KTH1 081647Z 33003KT 07/M02 A3046 RMK A01 T00651015  RH  057%=      5-min Rain = 0
KTH1 081648Z 01004KT 06/M01 A3046 RMK A01 T00641014  RH  057%=      5-min Rain = 0
KTH1 081649Z 04004KT 06/M01 A3046 RMK A01 T00641012  RH  058%=      5-min Rain = 0
KTH1 081650Z 01003KT 06/M01 A3046 RMK A01 T00641012  RH  058%=      5-min Rain = 0
KTH1 081651Z 02001KT 06/M02 A3046 RMK A01 T00631015  RH  057%=      5-min Rain = 0
KTH1 081652Z 35002KT 06/M01 A3046 RMK A01 T00621012  RH  059%=      5-min Rain = 0
KTH1 081653Z 35005KT 06/M01 A3046 RMK A01 T00641009  RH  060%=      5-min Rain = 0
KTH1 081654Z 36006KT 07/M01 A3046 RMK A01 T00651009  RH  059%=      5-min Rain = 0
KTH1 081655Z 36004KT 07/M01 A3046 RMK A01 T00651012  RH  058%=      5-min Rain = 0
KTH1 081656Z 33006KT 07/M01 A3046 RMK A01 T00651010  RH  058%=      5-min Rain = 0
KTH1 081657Z 32007KT 07/M01 A3046 RMK A01 T00651006  RH  060%=      5-min Rain = 0
KTH1 081658Z 32006KT 07/M01 A3046 RMK A01 T00661007  RH  060%=      5-min Rain = 0
KTH1 081659Z 31007KT 07/M01 A3045 RMK A01 T00651008  RH  059%=      5-min Rain = 0
KTH1 081700Z 31006KT 07/M00 A3045 RMK A01 T00651003  RH  062%=      5-min Rain = 0
KTH1 081701Z 35004KT 07/M00 A3045 RMK A01 T00671002  RH  061%=      5-min Rain = 0
KTH1 081702Z 32004KT 07/M01 A3045 RMK A01 T00681005  RH  060%=      5-min Rain = 0
KTH1 081703Z 31005KT 07/M00 A3045 RMK A01 T00691004  RH  060%=      5-min Rain = 0
KTH1 081704Z 31005KT 07/M01 A3045 RMK A01 T00691007  RH  058%=      5-min Rain = 0
KTH1 081705Z 32003KT 07/M01 A3045 RMK A01 T00691008  RH  058%=      5-min Rain = 0
KTH1 081706Z 32004KT 07/M01 A3045 RMK A01 T00671011  RH  057%=      5-min Rain = 0
KTH1 081707Z 34004KT 07/M01 A3045 RMK A01 T00671007  RH  059%=      5-min Rain = 0
KTH1 081708Z 34003KT 07/M01 A3045 RMK A01 T00681008  RH  058%=      5-min Rain = 0
KTH1 081709Z 33003KT 07/M01 A3045 RMK A01 T00681008  RH  058%=      5-min Rain = 0
KTH1 081710Z 33002KT 07/M01 A3045 RMK A01 T00681006  RH  059%=      5-min Rain = 0
KTH1 081711Z 31003KT 07/M00 A3045 RMK A01 T00701004  RH  059%=      5-min Rain = 0
KTH1 081712Z 30002KT 07/M01 A3045 RMK A01 T00711006  RH  058%=      5-min Rain = 0
KTH1 081713Z 33003KT 07/M00 A3045 RMK A01 T00711004  RH  059%=      5-min Rain = 0
KTH1 081714Z 31003KT 07/M01 A3044 RMK A01 T00711009  RH  057%=      5-min Rain = 0
KTH1 081715Z 31004KT 07/M01 A3044 RMK A01 T00691008  RH  058%=      5-min Rain = 0
KTH1 081716Z 30004KT 07/M01 A3044 RMK A01 T00691006  RH  059%=      5-min Rain = 0
KTH1 081717Z 32004KT 07/M00 A3044 RMK A01 T00701002  RH  060%=      5-min Rain = 0
KTH1 081718Z 35004KT 07/M00 A3044 RMK A01 T00701004  RH  059%=      5-min Rain = 0
KTH1 081719Z 34004KT 07/M01 A3044 RMK A01 T00711005  RH  059%=      5-min Rain = 0
KTH1 081720Z 31002KT 07/M01 A3044 RMK A01 T00711007  RH  058%=      5-min Rain = 0
KTH1 081721Z 31003KT 07/M01 A3044 RMK A01 T00711007  RH  058%=      5-min Rain = 0
KTH1 081722Z 35003KT 07/M01 A3044 RMK A01 T00701006  RH  059%=      5-min Rain = 0
KTH1 081723Z 34002KT 07/M01 A3044 RMK A01 T00691007  RH  058%=      5-min Rain = 0
KTH1 081724Z 34004KT 07/M00 A3044 RMK A01 T00711003  RH  060%=      5-min Rain = 0
KTH1 081725Z 33003KT 07/M01 A3044 RMK A01 T00721006  RH  058%=      5-min Rain = 0
KTH1 081726Z 34005KT 07/M00 A3044 RMK A01 T00711004  RH  059%=      5-min Rain = 0
KTH1 081727Z 35005KT 07/M00 A3044 RMK A01 T00711004  RH  059%=      5-min Rain = 0
KTH1 081728Z 33004KT 07/M01 A3044 RMK A01 T00721005  RH  058%=      5-min Rain = 0
KTH1 081729Z 32004KT 07/M01 A3044 RMK A01 T00721006  RH  058%=      5-min Rain = 0
KTH1 081730Z 32004KT 07/M01 A3044 RMK A01 T00701006  RH  058%=      5-min Rain = 0
KTH1 081731Z 31003KT 07/M01 A3044 RMK A01 T00691008  RH  058%=      5-min Rain = 0
KTH1 081732Z 32003KT 07/M01 A3044 RMK A01 T00681006  RH  059%=      5-min Rain = 0
KTH1 081733Z 32003KT 07/M01 A3044 RMK A01 T00681007  RH  059%=      5-min Rain = 0
KTH1 081734Z 35004KT 07/M01 A3044 RMK A01 T00671006  RH  060%=      5-min Rain = 0
KTH1 081735Z 33003KT 07/M00 A3044 RMK A01 T00681004  RH  060%=      5-min Rain = 0
KTH1 081736Z 32003KT 07/M01 A3044 RMK A01 T00691007  RH  059%=      5-min Rain = 0
KTH1 081737Z 32002KT 07/M01 A3043 RMK A01 T00691007  RH  058%=      5-min Rain = 0
KTH1 081738Z 35002KT 07/M01 A3043 RMK A01 T00681007  RH  058%=      5-min Rain = 0
KTH1 081739Z 33001KT 07/M00 A3043 RMK A01 T00691004  RH  059%=      5-min Rain = 0
KTH1 081740Z 22001KT 07/M01 A3043 RMK A01 T00701006  RH  058%=      5-min Rain = 0
KTH1 081741Z 27001KT 07/M01 A3043 RMK A01 T00711006  RH  058%=      5-min Rain = 0
KTH1 081742Z 23003KT 07/M00 A3043 RMK A01 T00721003  RH  059%=      5-min Rain = 0
KTH1 081743Z 31004KT 07/M00 A3043 RMK A01 T00731002  RH  059%=      5-min Rain = 0
KTH1 081744Z 30004KT 07/M00 A3043 RMK A01 T00731002  RH  059%=      5-min Rain = 0
KTH1 081745Z 29002KT 07/M00 A3043 RMK A01 T00731001  RH  060%=      5-min Rain = 0
KTH1 081746Z 27002KT 07/00 A3043 RMK A01 T00740003  RH  061%=      5-min Rain = 0
KTH1 081747Z 27002KT 07/M00 A3042 RMK A01 T00741003  RH  058%=      5-min Rain = 0
KTH1 081748Z 30001KT 07/M00 A3042 RMK A01 T00741002  RH  059%=      5-min Rain = 0
KTH1 081749Z 32001KT 07/M01 A3042 RMK A01 T00731006  RH  057%=      5-min Rain = 0
KTH1 081750Z 29001KT 07/M01 A3042 RMK A01 T00721005  RH  058%=      5-min Rain = 0
KTH1 081751Z 27001KT 07/M00 A3042 RMK A01 T00721004  RH  058%=      5-min Rain = 0
KTH1 081752Z 24001KT 07/M01 A3042 RMK A01 T00721006  RH  058%=      5-min Rain = 0
KTH1 081753Z 23002KT 07/M01 A3042 RMK A01 T00721005  RH  058%=      5-min Rain = 0
KTH1 081754Z 26001KT 07/M01 A3042 RMK A01 T00711006  RH  058%=      5-min Rain = 0
KTH1 081755Z 28002KT 07/M00 A3042 RMK A01 T00711003  RH  060%=      5-min Rain = 0
KTH1 081756Z 25001KT 07/M00 A3042 RMK A01 T00711004  RH  059%=      5-min Rain = 0
KTH1 081757Z 23000KT 07/M01 A3042 RMK A01 T00711005  RH  058%=      5-min Rain = 0
KTH1 081758Z 32002KT 07/M00 A3042 RMK A01 T00711001  RH  060%=      5-min Rain = 0
KTH1 081759Z 32003KT 07/M00 A3042 RMK A01 T00721001  RH  060%=      5-min Rain = 0
KTH1 081800Z 31003KT 07/M00 A3042 RMK A01 T00721001  RH  060%=      5-min Rain = 0
KTH1 081801Z 35003KT 07/00 A3042 RMK A01 T00720001  RH  061%=      5-min Rain = 0
KTH1 081802Z 35003KT 07/00 A3042 RMK A01 T00730001  RH  060%=      5-min Rain = 0
KTH1 081803Z 28001KT 07/00 A3042 RMK A01 T007300-0  RH  059%=      5-min Rain = 0
KTH1 081804Z 25001KT 07/M00 A3042 RMK A01 T00731002  RH  059%=      5-min Rain = 0
KTH1 081805Z 26001KT 07/00 A3042 RMK A01 T007300-0  RH  060%=      5-min Rain = 0
KTH1 081806Z 12001KT 08/00 A3041 RMK A01 T00750004  RH  061%=      5-min Rain = 0
KTH1 081807Z 06001KT 08/M00 A3041 RMK A01 T00761001  RH  058%=      5-min Rain = 0
KTH1 081808Z 30002KT 08/00 A3041 RMK A01 T00760003  RH  060%=      5-min Rain = 0
KTH1 081809Z 29002KT 08/00 A3041 RMK A01 T00760001  RH  059%=      5-min Rain = 0
KTH1 081810Z 31000KT 08/00 A3041 RMK A01 T00750000  RH  059%=      5-min Rain = 0
KTH1 081811Z 27001KT 08/00 A3041 RMK A01 T00750002  RH  060%=      5-min Rain = 0
KTH1 081812Z 27001KT 08/00 A3041 RMK A01 T007500-0  RH  059%=      5-min Rain = 0
KTH1 081813Z 22001KT 08/00 A3041 RMK A01 T007500-0  RH  059%=      5-min Rain = 0
KTH1 081814Z 26002KT 08/00 A3041 RMK A01 T00750001  RH  059%=      5-min Rain = 0
KTH1 081815Z 27001KT 08/00 A3041 RMK A01 T00750001  RH  059%=      5-min Rain = 0
KTH1 081816Z 26001KT 08/00 A3041 RMK A01 T00760002  RH  059%=      5-min Rain = 0
KTH1 081817Z 27002KT 08/01 A304 RMK A01 T00760005  RH  061%=      5-min Rain = 0
KTH1 081818Z 27001KT 08/00 A304 RMK A01 T00760002  RH  059%=      5-min Rain = 0
KTH1 081819Z 28001KT 08/00 A304 RMK A01 T00760003  RH  060%=      5-min Rain = 0
KTH1 081820Z 27002KT 08/00 A304 RMK A01 T00750004  RH  060%=      5-min Rain = 0
KTH1 081821Z 26002KT 08/01 A304 RMK A01 T00760006  RH  061%=      5-min Rain = 0
KTH1 081822Z 25002KT 08/01 A304 RMK A01 T00770005  RH  060%=      5-min Rain = 0
KTH1 081823Z 25002KT 08/00 A304 RMK A01 T00770003  RH  060%=      5-min Rain = 0
KTH1 081824Z 25002KT 08/00 A304 RMK A01 T00760002  RH  059%=      5-min Rain = 0
KTH1 081825Z 25002KT 08/00 A304 RMK A01 T00750002  RH  060%=      5-min Rain = 0
KTH1 081826Z 23002KT 08/01 A304 RMK A01 T00760005  RH  061%=      5-min Rain = 0
KTH1 081827Z 25001KT 08/00 A304 RMK A01 T007600-0  RH  058%=      5-min Rain = 0
KTH1 081828Z 24000KT 08/00 A304 RMK A01 T00750000  RH  059%=      5-min Rain = 0
KTH1 081829Z 26001KT 08/00 A304 RMK A01 T007600-0  RH  058%=      5-min Rain = 0
KTH1 081830Z 26002KT 08/00 A304 RMK A01 T00770003  RH  060%=      5-min Rain = 0
KTH1 081831Z 26003KT 08/00 A304 RMK A01 T00770004  RH  060%=      5-min Rain = 0
KTH1 081832Z 25003KT 08/00 A304 RMK A01 T00770004  RH  060%=      5-min Rain = 0
KTH1 081833Z 26002KT 08/01 A304 RMK A01 T00770005  RH  060%=      5-min Rain = 0
KTH1 081834Z 28002KT 08/01 A304 RMK A01 T00770008  RH  061%=      5-min Rain = 0
KTH1 081835Z 29002KT 08/01 A3039 RMK A01 T00780006  RH  060%=      5-min Rain = 0
KTH1 081836Z 29001KT 08/01 A3039 RMK A01 T00780007  RH  060%=      5-min Rain = 0
KTH1 081837Z 29001KT 08/01 A3039 RMK A01 T00790007  RH  060%=      5-min Rain = 0
KTH1 081838Z 23003KT 08/01 A3039 RMK A01 T00800007  RH  060%=      5-min Rain = 0
KTH1 081839Z 20002KT 08/00 A3039 RMK A01 T00790003  RH  058%=      5-min Rain = 0
KTH1 081840Z 19001KT 08/00 A3039 RMK A01 T00770001  RH  058%=      5-min Rain = 0
KTH1 081841Z 18001KT 08/00 A3039 RMK A01 T00770001  RH  059%=      5-min Rain = 0
KTH1 081842Z 24001KT 08/00 A3039 RMK A01 T00770003  RH  060%=      5-min Rain = 0
KTH1 081843Z 27001KT 08/01 A3039 RMK A01 T00780005  RH  060%=      5-min Rain = 0
KTH1 081844Z 24002KT 08/01 A3039 RMK A01 T00790005  RH  059%=      5-min Rain = 0
KTH1 081845Z 24001KT 08/01 A3039 RMK A01 T00790005  RH  060%=      5-min Rain = 0
KTH1 081846Z 22001KT 08/00 A3038 RMK A01 T00790004  RH  059%=      5-min Rain = 0
KTH1 081847Z 21001KT 08/00 A3038 RMK A01 T00790003  RH  059%=      5-min Rain = 0
KTH1 081848Z 22000KT 08/01 A3038 RMK A01 T00790006  RH  060%=      5-min Rain = 0
KTH1 081849Z 24002KT 08/01 A3038 RMK A01 T00800006  RH  059%=      5-min Rain = 0
KTH1 081850Z 21001KT 08/00 A3038 RMK A01 T00800004  RH  058%=      5-min Rain = 0
KTH1 081851Z 24001KT 08/01 A3038 RMK A01 T00790005  RH  059%=      5-min Rain = 0
KTH1 081852Z 24002KT 08/01 A3038 RMK A01 T00800007  RH  060%=      5-min Rain = 0
KTH1 081853Z 24002KT 08/01 A3038 RMK A01 T00820006  RH  059%=      5-min Rain = 0
KTH1 081854Z 24002KT 08/01 A3038 RMK A01 T00820006  RH  059%=      5-min Rain = 0
KTH1 081855Z 24002KT 08/01 A3038 RMK A01 T00820007  RH  059%=      5-min Rain = 0
KTH1 081856Z 24002KT 08/01 A3038 RMK A01 T00820005  RH  058%=      5-min Rain = 0
KTH1 081857Z 25002KT 08/01 A3038 RMK A01 T00810005  RH  059%=      5-min Rain = 0
KTH1 081858Z 26001KT 08/01 A3038 RMK A01 T00810006  RH  059%=      5-min Rain = 0
KTH1 081859Z 27002KT 08/01 A3038 RMK A01 T00820007  RH  059%=      5-min Rain = 0
KTH1 081900Z 28001KT 08/01 A3038 RMK A01 T00820005  RH  058%=      5-min Rain = 0
KTH1 081901Z 27001KT 08/01 A3038 RMK A01 T00830006  RH  058%=      5-min Rain = 0
KTH1 081902Z 27001KT 08/00 A3038 RMK A01 T00820003  RH  058%=      5-min Rain = 0
KTH1 081903Z 25001KT 08/00 A3038 RMK A01 T00820003  RH  058%=      5-min Rain = 0
KTH1 081904Z 25001KT 08/01 A3038 RMK A01 T00810005  RH  059%=      5-min Rain = 0
KTH1 081905Z 24002KT 08/01 A3037 RMK A01 T00820006  RH  059%=      5-min Rain = 0
KTH1 081906Z 24002KT 08/01 A3037 RMK A01 T00830005  RH  058%=      5-min Rain = 0
KTH1 081907Z 25002KT 08/00 A3037 RMK A01 T00820004  RH  058%=      5-min Rain = 0
KTH1 081908Z 26002KT 08/01 A3037 RMK A01 T00820005  RH  058%=      5-min Rain = 0
KTH1 081909Z 26001KT 08/00 A3037 RMK A01 T00810004  RH  058%=      5-min Rain = 0
KTH1 081910Z 31001KT 08/01 A3037 RMK A01 T00810005  RH  059%=      5-min Rain = 0
KTH1 081911Z 25001KT 08/01 A3037 RMK A01 T00820006  RH  058%=      5-min Rain = 0
KTH1 081912Z 27001KT 08/01 A3037 RMK A01 T00840008  RH  059%=      5-min Rain = 0
KTH1 081913Z 23002KT 09/01 A3037 RMK A01 T00860009  RH  059%=      5-min Rain = 0
KTH1 081914Z 23002KT 09/01 A3037 RMK A01 T00870006  RH  057%=      5-min Rain = 0
KTH1 081915Z 25001KT 09/01 A3037 RMK A01 T00860007  RH  057%=      5-min Rain = 0
KTH1 081916Z 26002KT 09/01 A3037 RMK A01 T00860006  RH  057%=      5-min Rain = 0
KTH1 081917Z 24002KT 09/01 A3037 RMK A01 T00850005  RH  057%=      5-min Rain = 0
KTH1 081918Z 26002KT 08/00 A3037 RMK A01 T00840004  RH  057%=      5-min Rain = 0
KTH1 081919Z 28002KT 08/01 A3036 RMK A01 T00840005  RH  057%=      5-min Rain = 0
KTH1 081920Z 28001KT 08/01 A3036 RMK A01 T00840008  RH  059%=      5-min Rain = 0
KTH1 081921Z 28001KT 09/01 A3036 RMK A01 T00850008  RH  058%=      5-min Rain = 0
KTH1 081922Z 28001KT 09/01 A3036 RMK A01 T00850006  RH  058%=      5-min Rain = 0
KTH1 081923Z 28000KT 08/00 A3036 RMK A01 T00840004  RH  057%=      5-min Rain = 0
KTH1 081924Z 27000KT 08/01 A3036 RMK A01 T00840005  RH  058%=      5-min Rain = 0
KTH1 081925Z 26002KT 09/01 A3036 RMK A01 T00850007  RH  058%=      5-min Rain = 0
KTH1 081926Z 26001KT 09/01 A3036 RMK A01 T00870010  RH  058%=      5-min Rain = 0
KTH1 081927Z 23002KT 09/01 A3036 RMK A01 T00870007  RH  057%=      5-min Rain = 0
KTH1 081928Z 22002KT 09/01 A3036 RMK A01 T00870007  RH  057%=      5-min Rain = 0
KTH1 081929Z 23001KT 09/01 A3036 RMK A01 T00870006  RH  057%=      5-min Rain = 0
KTH1 081930Z 24001KT 09/01 A3036 RMK A01 T00870006  RH  057%=      5-min Rain = 0
KTH1 081931Z 27002KT 09/01 A3036 RMK A01 T00870008  RH  057%=      5-min Rain = 0
KTH1 081932Z 25001KT 09/01 A3036 RMK A01 T00880009  RH  058%=      5-min Rain = 0
KTH1 081933Z 24002KT 09/01 A3036 RMK A01 T00880009  RH  057%=      5-min Rain = 0
KTH1 081934Z 26003KT 09/01 A3036 RMK A01 T00890012  RH  058%=      5-min Rain = 0
KTH1 081935Z 27004KT 09/01 A3036 RMK A01 T00900011  RH  058%=      5-min Rain = 0
KTH1 081936Z 25003KT 09/01 A3036 RMK A01 T00900012  RH  058%=      5-min Rain = 0
KTH1 081937Z 27003KT 09/01 A3036 RMK A01 T00900013  RH  058%=      5-min Rain = 0
KTH1 081938Z 29003KT 09/01 A3036 RMK A01 T00900010  RH  057%=      5-min Rain = 0
KTH1 081939Z 27003KT 09/01 A3036 RMK A01 T00900009  RH  057%=      5-min Rain = 0
KTH1 081940Z 27002KT 09/01 A3036 RMK A01 T00890009  RH  057%=      5-min Rain = 0
KTH1 081941Z 26001KT 09/01 A3036 RMK A01 T00890009  RH  057%=      5-min Rain = 0
KTH1 081942Z 26001KT 09/01 A3036 RMK A01 T00890007  RH  056%=      5-min Rain = 0
KTH1 081943Z 26002KT 09/01 A3036 RMK A01 T00890008  RH  057%=      5-min Rain = 0
KTH1 081944Z 24001KT 09/01 A3036 RMK A01 T00900010  RH  057%=      5-min Rain = 0
KTH1 081945Z 24001KT 09/01 A3036 RMK A01 T00900009  RH  057%=      5-min Rain = 0
KTH1 081946Z 25002KT 09/01 A3036 RMK A01 T00900010  RH  057%=      5-min Rain = 0
KTH1 081947Z 24002KT 09/01 A3036 RMK A01 T00900010  RH  057%=      5-min Rain = 0
KTH1 081948Z 23002KT 09/01 A3036 RMK A01 T00890009  RH  057%=      5-min Rain = 0
KTH1 081949Z 21001KT 09/01 A3036 RMK A01 T00880012  RH  059%=      5-min Rain = 0
KTH1 081950Z 25003KT 09/02 A3036 RMK A01 T00910016  RH  060%=      5-min Rain = 0
KTH1 081951Z 26003KT 09/02 A3036 RMK A01 T00920016  RH  059%=      5-min Rain = 0
KTH1 081952Z 25003KT 09/01 A3036 RMK A01 T00930013  RH  057%=      5-min Rain = 0
KTH1 081953Z 24001KT 09/01 A3036 RMK A01 T00920011  RH  057%=      5-min Rain = 0
KTH1 081954Z 23000KT 09/01 A3036 RMK A01 T00920011  RH  057%=      5-min Rain = 0
KTH1 081955Z 19001KT 09/01 A3036 RMK A01 T00920012  RH  057%=      5-min Rain = 0
KTH1 081956Z 10000KT 09/01 A3035 RMK A01 T00920010  RH  057%=      5-min Rain = 0
KTH1 081957Z 05001KT 09/01 A3035 RMK A01 T00920011  RH  057%=      5-min Rain = 0
KTH1 081958Z 36001KT 09/01 A3035 RMK A01 T00930011  RH  057%=      5-min Rain = 0
KTH1 081959Z 35001KT 09/01 A3035 RMK A01 T00930013  RH  057%=      5-min Rain = 0
KTH1 082000Z 22002KT 09/02 A3035 RMK A01 T00930015  RH  058%=      5-min Rain = 0
KTH1 082001Z 26003KT 09/02 A3035 RMK A01 T00940016  RH  058%=      5-min Rain = 0
KTH1 082002Z 27003KT 10/02 A3035 RMK A01 T00950019  RH  059%=      5-min Rain = 0
KTH1 082003Z 26003KT 10/02 A3035 RMK A01 T00950017  RH  058%=      5-min Rain = 0
KTH1 082004Z 24003KT 10/02 A3035 RMK A01 T00950016  RH  058%=      5-min Rain = 0
KTH1 082005Z 25002KT 09/01 A3035 RMK A01 T00930014  RH  058%=      5-min Rain = 0
KTH1 082006Z 27002KT 09/02 A3035 RMK A01 T00930015  RH  058%=      5-min Rain = 0
KTH1 082007Z 27002KT 09/02 A3035 RMK A01 T00920016  RH  059%=      5-min Rain = 0
KTH1 082008Z 25001KT 09/02 A3035 RMK A01 T00930017  RH  059%=      5-min Rain = 0
KTH1 082009Z 26004KT 09/02 A3035 RMK A01 T00930017  RH  059%=      5-min Rain = 0
KTH1 082010Z 26003KT 09/02 A3035 RMK A01 T00940018  RH  059%=      5-min Rain = 0
KTH1 082011Z 25002KT 09/02 A3036 RMK A01 T00940018  RH  059%=      5-min Rain = 0
KTH1 082012Z 26001KT 09/02 A3036 RMK A01 T00940017  RH  058%=      5-min Rain = 0
KTH1 082013Z 28001KT 09/02 A3036 RMK A01 T00940015  RH  058%=      5-min Rain = 0
KTH1 082014Z 24001KT 09/02 A3035 RMK A01 T00940018  RH  059%=      5-min Rain = 0
KTH1 082015Z 24001KT 10/02 A3035 RMK A01 T00960019  RH  059%=      5-min Rain = 0
KTH1 082016Z 26001KT 10/02 A3035 RMK A01 T00970018  RH  058%=      5-min Rain = 0
KTH1 082017Z 30000KT 10/02 A3035 RMK A01 T00970018  RH  058%=      5-min Rain = 0
KTH1 082018Z 33000KT 10/02 A3035 RMK A01 T00970015  RH  057%=      5-min Rain = 0
KTH1 082019Z 29001KT 10/02 A3035 RMK A01 T00970016  RH  057%=      5-min Rain = 0
KTH1 082020Z 00000KT 10/02 A3035 RMK A01 T00970015  RH  057%=      5-min Rain = 0
KTH1 082021Z 00000KT 10/02 A3035 RMK A01 T00970017  RH  057%=      5-min Rain = 0
KTH1 082022Z 24000KT 10/02 A3035 RMK A01 T00990018  RH  057%=      5-min Rain = 0
KTH1 082023Z 29002KT 10/02 A3035 RMK A01 T00990019  RH  057%=      5-min Rain = 0
KTH1 082024Z 28002KT 10/02 A3035 RMK A01 T00990017  RH  056%=      5-min Rain = 0
KTH1 082025Z 27001KT 10/02 A3035 RMK A01 T00990016  RH  056%=      5-min Rain = 0
KTH1 082026Z 29002KT 10/02 A3035 RMK A01 T00980015  RH  056%=      5-min Rain = 0
KTH1 082027Z 28003KT 10/02 A3035 RMK A01 T00960017  RH  057%=      5-min Rain = 0
KTH1 082028Z 28003KT 10/02 A3035 RMK A01 T00960017  RH  058%=      5-min Rain = 0
KTH1 082029Z 30002KT 10/02 A3035 RMK A01 T00960016  RH  058%=      5-min Rain = 0
KTH1 082030Z 31002KT 10/02 A3035 RMK A01 T00950016  RH  058%=      5-min Rain = 0
KTH1 082031Z 30003KT 10/02 A3035 RMK A01 T00950017  RH  058%=      5-min Rain = 0
KTH1 082032Z 33003KT 10/02 A3035 RMK A01 T00960021  RH  059%=      5-min Rain = 0
KTH1 082033Z 33003KT 10/02 A3035 RMK A01 T00980021  RH  059%=      5-min Rain = 0
KTH1 082034Z 01002KT 10/02 A3035 RMK A01 T00970018  RH  058%=      5-min Rain = 0
KTH1 082035Z 03001KT 10/02 A3035 RMK A01 T00970019  RH  058%=      5-min Rain = 0
KTH1 082036Z 35003KT 10/02 A3035 RMK A01 T00970018  RH  058%=      5-min Rain = 0
KTH1 082037Z 33003KT 10/02 A3035 RMK A01 T00980022  RH  059%=      5-min Rain = 0
KTH1 082038Z 32003KT 10/02 A3035 RMK A01 T00990020  RH  058%=      5-min Rain = 0
KTH1 082039Z 30002KT 10/02 A3035 RMK A01 T00980018  RH  057%=      5-min Rain = 0
KTH1 082040Z 35003KT 10/02 A3035 RMK A01 T00980020  RH  058%=      5-min Rain = 0
KTH1 082041Z 36002KT 10/02 A3035 RMK A01 T01000019  RH  057%=      5-min Rain = 0
KTH1 082042Z 34002KT 10/02 A3035 RMK A01 T01000017  RH  056%=      5-min Rain = 0
KTH1 082043Z 32002KT 10/02 A3035 RMK A01 T00990017  RH  057%=      5-min Rain = 0
KTH1 082044Z 28001KT 10/01 A3035 RMK A01 T00990014  RH  056%=      5-min Rain = 0
KTH1 082045Z 35002KT 10/02 A3035 RMK A01 T00990016  RH  056%=      5-min Rain = 0
KTH1 082046Z 36002KT 10/02 A3035 RMK A01 T01000016  RH  056%=      5-min Rain = 0
KTH1 082047Z 02001KT 10/02 A3035 RMK A01 T01000016  RH  056%=      5-min Rain = 0
KTH1 082048Z 30002KT 10/02 A3035 RMK A01 T01020019  RH  056%=      5-min Rain = 0
KTH1 082049Z 30005KT 11/03 A3035 RMK A01 T01060025  RH  057%=      5-min Rain = 0
KTH1 082050Z 34004KT 11/02 A3035 RMK A01 T01070019  RH  054%=      5-min Rain = 0
KTH1 082051Z 33002KT 10/01 A3035 RMK A01 T01040013  RH  053%=      5-min Rain = 0
KTH1 082052Z 02001KT 10/02 A3035 RMK A01 T01020015  RH  055%=      5-min Rain = 0
KTH1 082053Z 08002KT 10/01 A3035 RMK A01 T01030013  RH  054%=      5-min Rain = 0
KTH1 082054Z 12002KT 10/01 A3035 RMK A01 T01040014  RH  054%=      5-min Rain = 0
KTH1 082055Z 12002KT 11/02 A3035 RMK A01 T01050016  RH  054%=      5-min Rain = 0
KTH1 082056Z 28003KT 11/02 A3035 RMK A01 T01070019  RH  054%=      5-min Rain = 0
KTH1 082057Z 29004KT 11/02 A3035 RMK A01 T01110023  RH  055%=      5-min Rain = 0
KTH1 082058Z 30005KT 11/02 A3035 RMK A01 T01130023  RH  054%=      5-min Rain = 0
KTH1 082059Z 30004KT 11/03 A3035 RMK A01 T01130026  RH  055%=      5-min Rain = 0
KTH1 082100Z 28005KT 11/03 A3035 RMK A01 T01130028  RH  056%=      5-min Rain = 0
KTH1 082101Z 29005KT 11/03 A3035 RMK A01 T01140026  RH  055%=      5-min Rain = 0
KTH1 082102Z 29004KT 12/02 A3035 RMK A01 T01150022  RH  053%=      5-min Rain = 0
KTH1 082103Z 30005KT 12/02 A3035 RMK A01 T01150021  RH  053%=      5-min Rain = 0
KTH1 082104Z 30005KT 11/02 A3035 RMK A01 T01140024  RH  054%=      5-min Rain = 0
KTH1 082105Z 31003KT 11/02 A3035 RMK A01 T01120020  RH  053%=      5-min Rain = 0
KTH1 082106Z 32002KT 11/02 A3035 RMK A01 T01100016  RH  052%=      5-min Rain = 0
KTH1 082107Z 02000KT 11/01 A3034 RMK A01 T01090014  RH  052%=      5-min Rain = 0
KTH1 082108Z 05001KT 11/01 A3034 RMK A01 T01080014  RH  052%=      5-min Rain = 0
KTH1 082109Z 06001KT 11/01 A3034 RMK A01 T01070014  RH  052%=      5-min Rain = 0
KTH1 082110Z 17001KT 11/02 A3034 RMK A01 T01080017  RH  054%=      5-min Rain = 0
KTH1 082111Z 20001KT 11/02 A3034 RMK A01 T01090015  RH  052%=      5-min Rain = 0
KTH1 082112Z 31002KT 11/02 A3034 RMK A01 T01090018  RH  053%=      5-min Rain = 0
KTH1 082113Z 30003KT 11/02 A3034 RMK A01 T01100021  RH  054%=      5-min Rain = 0
KTH1 082114Z 31003KT 11/02 A3034 RMK A01 T01090018  RH  053%=      5-min Rain = 0
KTH1 082115Z 30002KT 11/02 A3034 RMK A01 T01070018  RH  054%=      5-min Rain = 0
KTH1 082116Z 30001KT 11/02 A3034 RMK A01 T01070017  RH  054%=      5-min Rain = 0
KTH1 082117Z 30003KT 11/02 A3034 RMK A01 T01080019  RH  054%=      5-min Rain = 0
KTH1 082118Z 32004KT 11/02 A3034 RMK A01 T01080020  RH  054%=      5-min Rain = 0
KTH1 082119Z 34003KT 11/02 A3034 RMK A01 T01080018  RH  054%=      5-min Rain = 0
KTH1 082120Z 35003KT 11/02 A3034 RMK A01 T01070017  RH  054%=      5-min Rain = 0
KTH1 082121Z 34004KT 11/02 A3034 RMK A01 T01060018  RH  055%=      5-min Rain = 0
KTH1 082122Z 34003KT 11/02 A3033 RMK A01 T01060018  RH  055%=      5-min Rain = 0
KTH1 082123Z 00002KT 11/02 A3033 RMK A01 T01060019  RH  055%=      5-min Rain = 0
KTH1 082124Z 32003KT 11/02 A3033 RMK A01 T01060018  RH  054%=      5-min Rain = 0
KTH1 082125Z 31006KT 11/02 A3033 RMK A01 T01070021  RH  055%=      5-min Rain = 0
KTH1 082126Z 33004KT 11/02 A3033 RMK A01 T01070023  RH  056%=      5-min Rain = 0
KTH1 082127Z 31005KT 11/02 A3034 RMK A01 T01070024  RH  056%=      5-min Rain = 0
KTH1 082128Z 30005KT 11/02 A3033 RMK A01 T01090023  RH  056%=      5-min Rain = 0
KTH1 082129Z 29005KT 11/03 A3033 RMK A01 T01090026  RH  056%=      5-min Rain = 0
KTH1 082130Z 31004KT 11/02 A3033 RMK A01 T01100022  RH  055%=      5-min Rain = 0
KTH1 082131Z 31003KT 11/02 A3033 RMK A01 T01100023  RH  055%=      5-min Rain = 0
KTH1 082132Z 31003KT 11/02 A3033 RMK A01 T01080022  RH  055%=      5-min Rain = 0
KTH1 082133Z 34003KT 11/02 A3033 RMK A01 T01080022  RH  055%=      5-min Rain = 0
KTH1 082134Z 34003KT 11/02 A3033 RMK A01 T01060020  RH  055%=      5-min Rain = 0
KTH1 082135Z 34003KT 11/02 A3033 RMK A01 T01060021  RH  056%=      5-min Rain = 0
KTH1 082136Z 35002KT 11/02 A3033 RMK A01 T01050020  RH  055%=      5-min Rain = 0
KTH1 082137Z 35003KT 11/02 A3033 RMK A01 T01050021  RH  056%=      5-min Rain = 0
KTH1 082138Z 32002KT 10/02 A3033 RMK A01 T01040019  RH  056%=      5-min Rain = 0
KTH1 082139Z 33000KT 10/02 A3033 RMK A01 T01030019  RH  056%=      5-min Rain = 0
KTH1 082140Z 17001KT 10/02 A3033 RMK A01 T01030018  RH  055%=      5-min Rain = 0
KTH1 082141Z 20001KT 10/02 A3033 RMK A01 T01030019  RH  056%=      5-min Rain = 0
KTH1 082142Z 20001KT 10/02 A3033 RMK A01 T01030019  RH  056%=      5-min Rain = 0
KTH1 082143Z 18000KT 10/02 A3033 RMK A01 T01040019  RH  056%=      5-min Rain = 0
KTH1 082144Z 04001KT 11/02 A3033 RMK A01 T01050019  RH  055%=      5-min Rain = 0
KTH1 082145Z 03001KT 11/02 A3033 RMK A01 T01050020  RH  056%=      5-min Rain = 0
KTH1 082146Z 01002KT 11/02 A3032 RMK A01 T01060023  RH  056%=      5-min Rain = 0
KTH1 082147Z 02002KT 11/02 A3032 RMK A01 T01060022  RH  056%=      5-min Rain = 0
KTH1 082148Z 34001KT 11/02 A3032 RMK A01 T01060022  RH  056%=      5-min Rain = 0
KTH1 082149Z 02000KT 11/02 A3032 RMK A01 T01050022  RH  056%=      5-min Rain = 0
KTH1 082150Z 00001KT 11/02 A3032 RMK A01 T01050023  RH  057%=      5-min Rain = 0
KTH1 082151Z 35002KT 11/02 A3032 RMK A01 T01050022  RH  056%=      5-min Rain = 0
KTH1 082152Z 35003KT 11/02 A3032 RMK A01 T01050023  RH  057%=      5-min Rain = 0
KTH1 082153Z 02002KT 11/02 A3032 RMK A01 T01050023  RH  057%=      5-min Rain = 0
KTH1 082154Z 03002KT 11/02 A3032 RMK A01 T01050023  RH  057%=      5-min Rain = 0
KTH1 082155Z 35001KT 11/03 A3032 RMK A01 T01050025  RH  058%=      5-min Rain = 0
KTH1 082156Z 34003KT 11/02 A3032 RMK A01 T01060024  RH  057%=      5-min Rain = 0
KTH1 082157Z 33002KT 11/03 A3032 RMK A01 T01060025  RH  057%=      5-min Rain = 0
KTH1 082158Z 32002KT 11/03 A3032 RMK A01 T01060025  RH  057%=      5-min Rain = 0
KTH1 082159Z 29002KT 11/03 A3032 RMK A01 T01060027  RH  058%=      5-min Rain = 0
KTH1 082200Z 29003KT 11/03 A3032 RMK A01 T01070028  RH  058%=      5-min Rain = 0
KTH1 082201Z 30003KT 11/03 A3032 RMK A01 T01070026  RH  057%=      5-min Rain = 0
KTH1 082202Z 30003KT 11/03 A3032 RMK A01 T01070025  RH  057%=      5-min Rain = 0
KTH1 082203Z 31003KT 11/03 A3032 RMK A01 T01070028  RH  058%=      5-min Rain = 0
KTH1 082204Z 31003KT 11/03 A3032 RMK A01 T01080028  RH  058%=      5-min Rain = 0
KTH1 082205Z 30002KT 11/03 A3032 RMK A01 T01080027  RH  057%=      5-min Rain = 0
KTH1 082206Z 33002KT 11/03 A3032 RMK A01 T01080026  RH  057%=      5-min Rain = 0
KTH1 082207Z 31004KT 11/03 A3032 RMK A01 T01080027  RH  057%=      5-min Rain = 0
KTH1 082208Z 31004KT 11/03 A3032 RMK A01 T01080028  RH  058%=      5-min Rain = 0
KTH1 082209Z 30004KT 11/03 A3032 RMK A01 T01080028  RH  058%=      5-min Rain = 0
KTH1 082210Z 31004KT 11/03 A3032 RMK A01 T01080029  RH  058%=      5-min Rain = 0
KTH1 082211Z 31003KT 11/03 A3032 RMK A01 T01080025  RH  057%=      5-min Rain = 0
KTH1 082212Z 29004KT 11/03 A3032 RMK A01 T01070026  RH  057%=      5-min Rain = 0
KTH1 082213Z 30003KT 11/03 A3032 RMK A01 T01070027  RH  058%=      5-min Rain = 0
KTH1 082214Z 29004KT 11/03 A3032 RMK A01 T01070028  RH  058%=      5-min Rain = 0
KTH1 082215Z 29003KT 11/03 A3032 RMK A01 T01080027  RH  057%=      5-min Rain = 0
KTH1 082216Z 30002KT 11/02 A3032 RMK A01 T01080024  RH  056%=      5-min Rain = 0
KTH1 082217Z 25002KT 11/03 A3032 RMK A01 T01080026  RH  057%=      5-min Rain = 0
KTH1 082218Z 23002KT 11/03 A3032 RMK A01 T01090027  RH  057%=      5-min Rain = 0
KTH1 082219Z 23001KT 11/03 A3032 RMK A01 T01090026  RH  056%=      5-min Rain = 0
KTH1 082220Z 27001KT 11/03 A3032 RMK A01 T01100026  RH  056%=      5-min Rain = 0
KTH1 082221Z 31001KT 11/03 A3032 RMK A01 T01110027  RH  056%=      5-min Rain = 0
KTH1 082222Z 31001KT 11/03 A3032 RMK A01 T01120027  RH  056%=      5-min Rain = 0
KTH1 082223Z 32001KT 11/03 A3032 RMK A01 T01120026  RH  055%=      5-min Rain = 0
KTH1 082224Z 31001KT 11/03 A3032 RMK A01 T01110025  RH  055%=      5-min Rain = 0
KTH1 082225Z 29000KT 11/03 A3032 RMK A01 T01100025  RH  055%=      5-min Rain = 0
KTH1 082226Z 24000KT 11/02 A3032 RMK A01 T01100024  RH  055%=      5-min Rain = 0
KTH1 082227Z 31002KT 11/03 A3032 RMK A01 T01110025  RH  056%=      5-min Rain = 0
KTH1 082228Z 30003KT 11/03 A3032 RMK A01 T01120027  RH  056%=      5-min Rain = 0
KTH1 082229Z 32002KT 11/03 A3032 RMK A01 T01120028  RH  057%=      5-min Rain = 0
KTH1 082230Z 33002KT 11/03 A3032 RMK A01 T01110027  RH  056%=      5-min Rain = 0
KTH1 082231Z 31002KT 11/03 A3032 RMK A01 T01100029  RH  057%=      5-min Rain = 0
KTH1 082232Z 31003KT 11/03 A3032 RMK A01 T01090031  RH  059%=      5-min Rain = 0
KTH1 082233Z 31003KT 11/03 A3032 RMK A01 T01070026  RH  057%=      5-min Rain = 0
KTH1 082234Z 30003KT 11/03 A3032 RMK A01 T01060026  RH  058%=      5-min Rain = 0
KTH1 082235Z 29003KT 11/03 A3032 RMK A01 T01050029  RH  059%=      5-min Rain = 0
KTH1 082236Z 29003KT 11/03 A3032 RMK A01 T01050030  RH  060%=      5-min Rain = 0
KTH1 082237Z 30002KT 11/03 A3032 RMK A01 T01050027  RH  058%=      5-min Rain = 0
KTH1 082238Z 34001KT 11/03 A3032 RMK A01 T01050027  RH  058%=      5-min Rain = 0
KTH1 082239Z 35001KT 11/03 A3032 RMK A01 T01050027  RH  058%=      5-min Rain = 0
KTH1 082240Z 32002KT 11/03 A3032 RMK A01 T01050027  RH  058%=      5-min Rain = 0
KTH1 082241Z 30003KT 10/03 A3032 RMK A01 T01040025  RH  058%=      5-min Rain = 0
KTH1 082242Z 31003KT 10/03 A3032 RMK A01 T01040026  RH  058%=      5-min Rain = 0
KTH1 082243Z 32003KT 10/03 A3032 RMK A01 T01040028  RH  059%=      5-min Rain = 0
KTH1 082244Z 32002KT 10/03 A3032 RMK A01 T01040026  RH  058%=      5-min Rain = 0
KTH1 082245Z 32001KT 10/03 A3032 RMK A01 T01040025  RH  058%=      5-min Rain = 0
KTH1 082246Z 35000KT 10/02 A3032 RMK A01 T01030024  RH  058%=      5-min Rain = 0
KTH1 082247Z 35001KT 10/02 A3032 RMK A01 T01030023  RH  058%=      5-min Rain = 0
KTH1 082248Z 34001KT 10/02 A3032 RMK A01 T01020023  RH  058%=      5-min Rain = 0
KTH1 082249Z 33001KT 10/02 A3032 RMK A01 T01010023  RH  058%=      5-min Rain = 0
KTH1 082250Z 32002KT 10/02 A3032 RMK A01 T01010024  RH  058%=      5-min Rain = 0
KTH1 082251Z 32002KT 10/02 A3032 RMK A01 T01010023  RH  058%=      5-min Rain = 0
KTH1 082252Z 33001KT 10/02 A3032 RMK A01 T01010023  RH  059%=      5-min Rain = 0
KTH1 082253Z 01001KT 10/02 A3032 RMK A01 T01010024  RH  059%=      5-min Rain = 0
KTH1 082254Z 00001KT 10/02 A3032 RMK A01 T01000024  RH  059%=      5-min Rain = 0
KTH1 082255Z 34001KT 10/02 A3032 RMK A01 T01000023  RH  059%=      5-min Rain = 0
KTH1 082256Z 36001KT 10/02 A3032 RMK A01 T00990024  RH  059%=      5-min Rain = 0
KTH1 082257Z 33001KT 10/02 A3032 RMK A01 T00990024  RH  060%=      5-min Rain = 0
KTH1 082258Z 00001KT 10/03 A3032 RMK A01 T00990025  RH  060%=      5-min Rain = 0
KTH1 082259Z 35001KT 10/03 A3032 RMK A01 T00990025  RH  060%=      5-min Rain = 0
KTH1 082300Z 00002KT 10/03 A3032 RMK A01 T00980026  RH  061%=      5-min Rain = 0
KTH1 082301Z 34001KT 10/03 A3032 RMK A01 T00980027  RH  061%=      5-min Rain = 0
KTH1 082302Z 35001KT 10/03 A3032 RMK A01 T00970028  RH  062%=      5-min Rain = 0
KTH1 082303Z 01002KT 10/03 A3032 RMK A01 T00970028  RH  062%=      5-min Rain = 0
KTH1 082304Z 02002KT 10/03 A3032 RMK A01 T00960028  RH  062%=      5-min Rain = 0
KTH1 082305Z 04002KT 10/03 A3032 RMK A01 T00960027  RH  062%=      5-min Rain = 0
KTH1 082306Z 04002KT 10/03 A3032 RMK A01 T00950026  RH  062%=      5-min Rain = 0
KTH1 082307Z 03002KT 10/03 A3032 RMK A01 T00950025  RH  062%=      5-min Rain = 0
KTH1 082308Z 02002KT 10/03 A3032 RMK A01 T00950026  RH  062%=      5-min Rain = 0
KTH1 082309Z 01002KT 10/03 A3032 RMK A01 T00950026  RH  062%=      5-min Rain = 0
KTH1 082310Z 00002KT 09/03 A3032 RMK A01 T00940027  RH  063%=      5-min Rain = 0
KTH1 082311Z 00002KT 09/03 A3031 RMK A01 T00940027  RH  063%=      5-min Rain = 0
KTH1 082312Z 00002KT 09/03 A3031 RMK A01 T00940026  RH  062%=      5-min Rain = 0
KTH1 082313Z 01002KT 09/03 A3031 RMK A01 T00940026  RH  063%=      5-min Rain = 0
KTH1 082314Z 01001KT 09/03 A3031 RMK A01 T00930027  RH  063%=      5-min Rain = 0
KTH1 082315Z 01001KT 09/03 A3031 RMK A01 T00930028  RH  063%=      5-min Rain = 0
KTH1 082316Z 00002KT 09/03 A3031 RMK A01 T00930027  RH  063%=      5-min Rain = 0
KTH1 082317Z 01002KT 09/03 A3031 RMK A01 T00930026  RH  063%=      5-min Rain = 0
KTH1 082318Z 02002KT 09/03 A3031 RMK A01 T00930025  RH  063%=      5-min Rain = 0
KTH1 082319Z 03002KT 09/03 A3031 RMK A01 T00930026  RH  063%=      5-min Rain = 0
KTH1 082320Z 03001KT 09/03 A3031 RMK A01 T00920025  RH  063%=      5-min Rain = 0
KTH1 082321Z 03002KT 09/03 A3032 RMK A01 T00920025  RH  063%=      5-min Rain = 0
KTH1 082322Z 01001KT 09/03 A3032 RMK A01 T00920026  RH  063%=      5-min Rain = 0
KTH1 082323Z 01001KT 09/03 A3032 RMK A01 T00920026  RH  063%=      5-min Rain = 0
KTH1 082324Z 01001KT 09/03 A3032 RMK A01 T00920025  RH  063%=      5-min Rain = 0
KTH1 082325Z 03001KT 09/03 A3032 RMK A01 T00920025  RH  063%=      5-min Rain = 0
KTH1 082326Z 03001KT 09/03 A3032 RMK A01 T00920026  RH  063%=      5-min Rain = 0
KTH1 082327Z 04001KT 09/03 A3032 RMK A01 T00920026  RH  064%=      5-min Rain = 0
KTH1 082328Z 05001KT 09/03 A3032 RMK A01 T00920027  RH  064%=      5-min Rain = 0
KTH1 082329Z 05001KT 09/03 A3032 RMK A01 T00920028  RH  064%=      5-min Rain = 0
KTH1 082330Z 06001KT 09/03 A3032 RMK A01 T00910029  RH  065%=      5-min Rain = 0
KTH1 082331Z 06002KT 09/03 A3032 RMK A01 T00910033  RH  067%=      5-min Rain = 0
KTH1 082332Z 06002KT 09/03 A3032 RMK A01 T00900034  RH  068%=      5-min Rain = 0
KTH1 082333Z 06002KT 09/03 A3032 RMK A01 T00900032  RH  067%=      5-min Rain = 0
KTH1 082334Z 05002KT 09/03 A3032 RMK A01 T00900030  RH  066%=      5-min Rain = 0
KTH1 082335Z 05002KT 09/03 A3032 RMK A01 T00890030  RH  066%=      5-min Rain = 0
KTH1 082336Z 05002KT 09/03 A3032 RMK A01 T00880029  RH  066%=      5-min Rain = 0
KTH1 082337Z 06002KT 09/03 A3031 RMK A01 T00880029  RH  066%=      5-min Rain = 0
KTH1 082338Z 05002KT 09/03 A3031 RMK A01 T00880029  RH  067%=      5-min Rain = 0
KTH1 082339Z 05002KT 09/03 A3031 RMK A01 T00870029  RH  067%=      5-min Rain = 0
KTH1 082340Z 05002KT 09/03 A3031 RMK A01 T00870029  RH  067%=      5-min Rain = 0
KTH1 082341Z 05002KT 09/03 A3031 RMK A01 T00870028  RH  067%=      5-min Rain = 0
KTH1 082342Z 05002KT 09/03 A3031 RMK A01 T00870028  RH  067%=      5-min Rain = 0
KTH1 082343Z 05002KT 09/03 A3031 RMK A01 T00860028  RH  067%=      5-min Rain = 0
KTH1 082344Z 05002KT 09/03 A3031 RMK A01 T00860028  RH  067%=      5-min Rain = 0
KTH1 082345Z 05002KT 09/03 A3031 RMK A01 T00850027  RH  067%=      5-min Rain = 0
KTH1 082346Z 05002KT 09/03 A3031 RMK A01 T00850027  RH  067%=      5-min Rain = 0
KTH1 082347Z 05002KT 09/03 A3031 RMK A01 T00850026  RH  066%=      5-min Rain = 0
KTH1 082348Z 05002KT 09/03 A3031 RMK A01 T00850026  RH  067%=      5-min Rain = 0
KTH1 082349Z 05002KT 09/03 A3031 RMK A01 T00850026  RH  067%=      5-min Rain = 0
KTH1 082350Z 05002KT 08/03 A3031 RMK A01 T00840026  RH  067%=      5-min Rain = 0
KTH1 082351Z 07002KT 08/03 A3031 RMK A01 T00840026  RH  067%=      5-min Rain = 0
KTH1 082352Z 08002KT 08/03 A3031 RMK A01 T00840031  RH  069%=      5-min Rain = 0
KTH1 082353Z 09003KT 08/03 A3031 RMK A01 T00840032  RH  070%=      5-min Rain = 0
KTH1 082354Z 09002KT 08/03 A3031 RMK A01 T00830030  RH  069%=      5-min Rain = 0
KTH1 082355Z 09002KT 08/03 A3031 RMK A01 T00830030  RH  069%=      5-min Rain = 0
KTH1 082356Z 09002KT 08/03 A3031 RMK A01 T00830031  RH  070%=      5-min Rain = 0
KTH1 082357Z 08002KT 08/03 A3031 RMK A01 T00820031  RH  070%=      5-min Rain = 0
KTH1 082358Z 08002KT 08/03 A3031 RMK A01 T00820031  RH  070%=      5-min Rain = 0
KTH1 082359Z 08002KT 08/03 A3031 RMK A01 T00810033  RH  071%=      5-min Rain = 0
KTH1 090000Z 08002KT 08/03 A3031 RMK A01 T00810032  RH  071%=      5-min Rain = 0
KTH1 090001Z 08002KT 08/03 A3031 RMK A01 T00800032  RH  071%=      5-min Rain = 0
KTH1 090002Z 07002KT 08/03 A3031 RMK A01 T00800031  RH  071%=      5-min Rain = 0
KTH1 090003Z 07002KT 08/03 A3031 RMK A01 T00790029  RH  070%=      5-min Rain = 0
KTH1 090004Z 07002KT 08/03 A3031 RMK A01 T00790028  RH  070%=      5-min Rain = 0
KTH1 090005Z 07002KT 08/03 A3031 RMK A01 T00790027  RH  070%=      5-min Rain = 0
KTH1 090006Z 07002KT 08/03 A3031 RMK A01 T00790027  RH  070%=      5-min Rain = 0
KTH1 090007Z 06002KT 08/03 A3031 RMK A01 T00790026  RH  069%=      5-min Rain = 0
KTH1 090008Z 07002KT 08/03 A3031 RMK A01 T00790027  RH  069%=      5-min Rain = 0
KTH1 090009Z 08002KT 08/03 A3031 RMK A01 T00790026  RH  069%=      5-min Rain = 0
KTH1 090010Z 09002KT 08/03 A3031 RMK A01 T00790027  RH  069%=      5-min Rain = 0
KTH1 090011Z 10002KT 08/03 A3031 RMK A01 T00790028  RH  070%=      5-min Rain = 0
KTH1 090012Z 10002KT 08/03 A3031 RMK A01 T00790027  RH  070%=      5-min Rain = 0
KTH1 090013Z 10002KT 08/03 A3031 RMK A01 T00790027  RH  070%=      5-min Rain = 0
KTH1 090014Z 09002KT 08/03 A3031 RMK A01 T00780027  RH  070%=      5-min Rain = 0
KTH1 090015Z 09002KT 08/03 A3031 RMK A01 T00780029  RH  071%=      5-min Rain = 0
KTH1 090016Z 09002KT 08/03 A3031 RMK A01 T00770028  RH  071%=      5-min Rain = 0
KTH1 090017Z 09002KT 08/03 A3031 RMK A01 T00770028  RH  071%=      5-min Rain = 0
KTH1 090018Z 08002KT 08/03 A3032 RMK A01 T00760028  RH  072%=      5-min Rain = 0
KTH1 090019Z 08001KT 08/03 A3032 RMK A01 T00760028  RH  072%=      5-min Rain = 0
KTH1 090020Z 08001KT 08/03 A3032 RMK A01 T00750028  RH  072%=      5-min Rain = 0
KTH1 090021Z 08001KT 08/03 A3032 RMK A01 T00750028  RH  072%=      5-min Rain = 0
KTH1 090022Z 08001KT 08/03 A3032 RMK A01 T00750027  RH  072%=      5-min Rain = 0
KTH1 090023Z 08001KT 08/03 A3032 RMK A01 T00750027  RH  072%=      5-min Rain = 0
KTH1 090024Z 08001KT 07/03 A3032 RMK A01 T00740026  RH  072%=      5-min Rain = 0
KTH1 090025Z 08001KT 07/03 A3032 RMK A01 T00740026  RH  071%=      5-min Rain = 0
KTH1 090026Z 08001KT 07/03 A3032 RMK A01 T00740026  RH  071%=      5-min Rain = 0
KTH1 090027Z 08000KT 07/03 A3032 RMK A01 T00730025  RH  071%=      5-min Rain = 0
KTH1 090028Z 00000KT 07/03 A3032 RMK A01 T00730026  RH  072%=      5-min Rain = 0
KTH1 090029Z 00000KT 07/03 A3032 RMK A01 T00730027  RH  073%=      5-min Rain = 0
KTH1 090030Z 00000KT 07/03 A3032 RMK A01 T00730029  RH  073%=      5-min Rain = 0
KTH1 090031Z 00000KT 07/03 A3032 RMK A01 T00740031  RH  074%=      5-min Rain = 0
KTH1 090032Z 00000KT 07/03 A3032 RMK A01 T00740032  RH  075%=      5-min Rain = 0
KTH1 090033Z 00000KT 07/03 A3032 RMK A01 T00740032  RH  075%=      5-min Rain = 0
KTH1 090034Z 00000KT 07/03 A3032 RMK A01 T00740033  RH  075%=      5-min Rain = 0
KTH1 090035Z 00000KT 07/04 A3032 RMK A01 T00740035  RH  076%=      5-min Rain = 0
KTH1 090036Z 00000KT 07/03 A3032 RMK A01 T00740031  RH  074%=      5-min Rain = 0
KTH1 090037Z 00000KT 07/03 A3032 RMK A01 T00730029  RH  074%=      5-min Rain = 0
KTH1 090038Z 00000KT 07/03 A3032 RMK A01 T00740029  RH  073%=      5-min Rain = 0
KTH1 090039Z 08000KT 07/03 A3032 RMK A01 T00730028  RH  073%=      5-min Rain = 0
KTH1 090040Z 08001KT 07/03 A3032 RMK A01 T00730028  RH  073%=      5-min Rain = 0
KTH1 090041Z 08001KT 07/03 A3032 RMK A01 T00730028  RH  073%=      5-min Rain = 0
KTH1 090042Z 09001KT 07/03 A3032 RMK A01 T00730028  RH  073%=      5-min Rain = 0
KTH1 090043Z 09000KT 07/03 A3032 RMK A01 T00720027  RH  073%=      5-min Rain = 0
KTH1 090044Z 00000KT 07/03 A3032 RMK A01 T00710025  RH  073%=      5-min Rain = 0
KTH1 090045Z 00000KT 07/03 A3032 RMK A01 T00710025  RH  073%=      5-min Rain = 0
KTH1 090046Z 00000KT 07/03 A3032 RMK A01 T00710025  RH  072%=      5-min Rain = 0
KTH1 090047Z 00000KT 07/02 A3032 RMK A01 T00700024  RH  072%=      5-min Rain = 0
KTH1 090048Z 00000KT 07/02 A3032 RMK A01 T00700023  RH  072%=      5-min Rain = 0
KTH1 090049Z 00000KT 07/02 A3032 RMK A01 T00700023  RH  072%=      5-min Rain = 0
KTH1 090050Z 00000KT 07/02 A3032 RMK A01 T00700023  RH  072%=      5-min Rain = 0
KTH1 090051Z 09001KT 07/02 A3032 RMK A01 T00710024  RH  072%=      5-min Rain = 0
KTH1 090052Z 11002KT 07/03 A3032 RMK A01 T00720033  RH  076%=      5-min Rain = 0
KTH1 090053Z 25002KT 07/04 A3032 RMK A01 T00730035  RH  077%=      5-min Rain = 0
KTH1 090054Z 25002KT 07/03 A3032 RMK A01 T00730033  RH  076%=      5-min Rain = 0
KTH1 090055Z 25002KT 07/04 A3032 RMK A01 T00730035  RH  077%=      5-min Rain = 0
KTH1 090056Z 25002KT 07/04 A3032 RMK A01 T00720039  RH  079%=      5-min Rain = 0
KTH1 090057Z 24002KT 07/04 A3032 RMK A01 T00720041  RH  081%=      5-min Rain = 0
KTH1 090058Z 23001KT 07/04 A3032 RMK A01 T00710041  RH  081%=      5-min Rain = 0
KTH1 090059Z 00000KT 07/04 A3032 RMK A01 T00710041  RH  081%=      5-min Rain = 0
KTH1 090100Z 00000KT 07/04 A3032 RMK A01 T00700040  RH  081%=      5-min Rain = 0
KTH1 090101Z 00000KT 07/04 A3032 RMK A01 T00690038  RH  081%=      5-min Rain = 0
KTH1 090102Z 00000KT 07/04 A3032 RMK A01 T00680037  RH  080%=      5-min Rain = 0
KTH1 090103Z 14000KT 07/04 A3032 RMK A01 T00670036  RH  080%=      5-min Rain = 0
KTH1 090104Z 14001KT 07/04 A3032 RMK A01 T00670035  RH  080%=      5-min Rain = 0
KTH1 090105Z 15001KT 07/03 A3032 RMK A01 T00670034  RH  080%=      5-min Rain = 0
KTH1 090106Z 15001KT 07/03 A3032 RMK A01 T00670033  RH  079%=      5-min Rain = 0
KTH1 090107Z 17001KT 07/03 A3032 RMK A01 T00670032  RH  079%=      5-min Rain = 0
KTH1 090108Z 19001KT 07/03 A3032 RMK A01 T00670033  RH  079%=      5-min Rain = 0
KTH1 090109Z 21001KT 07/03 A3032 RMK A01 T00670033  RH  079%=      5-min Rain = 0
KTH1 090110Z 19001KT 07/04 A3032 RMK A01 T00670035  RH  080%=      5-min Rain = 0
KTH1 090111Z 17002KT 07/04 A3032 RMK A01 T00660035  RH  080%=      5-min Rain = 0
KTH1 090112Z 16002KT 07/03 A3032 RMK A01 T00660034  RH  080%=      5-min Rain = 0
KTH1 090113Z 14002KT 07/03 A3032 RMK A01 T00660031  RH  078%=      5-min Rain = 0
KTH1 090114Z 14002KT 07/03 A3032 RMK A01 T00650029  RH  078%=      5-min Rain = 0
KTH1 090115Z 14002KT 07/03 A3032 RMK A01 T00650030  RH  078%=      5-min Rain = 0
KTH1 090116Z 14003KT 06/03 A3032 RMK A01 T00630029  RH  079%=      5-min Rain = 0
KTH1 090117Z 14003KT 06/03 A3032 RMK A01 T00630027  RH  078%=      5-min Rain = 0
KTH1 090118Z 14003KT 06/03 A3032 RMK A01 T00620025  RH  077%=      5-min Rain = 0
KTH1 090119Z 15002KT 06/02 A3032 RMK A01 T00620024  RH  076%=      5-min Rain = 0
KTH1 090120Z 15002KT 06/02 A3032 RMK A01 T00620024  RH  076%=      5-min Rain = 0
KTH1 090121Z 15002KT 06/02 A3032 RMK A01 T00620023  RH  076%=      5-min Rain = 0
KTH1 090122Z 15002KT 06/02 A3032 RMK A01 T00620022  RH  076%=      5-min Rain = 0
KTH1 090123Z 16002KT 06/02 A3032 RMK A01 T00620022  RH  075%=      5-min Rain = 0
KTH1 090124Z 16002KT 06/02 A3032 RMK A01 T00620022  RH  075%=      5-min Rain = 0
KTH1 090125Z 16002KT 06/02 A3032 RMK A01 T00620022  RH  076%=      5-min Rain = 0
KTH1 090126Z 16002KT 06/02 A3032 RMK A01 T00620022  RH  076%=      5-min Rain = 0
KTH1 090127Z 17002KT 06/02 A3032 RMK A01 T00620022  RH  076%=      5-min Rain = 0
KTH1 090128Z 18002KT 06/02 A3032 RMK A01 T00620022  RH  076%=      5-min Rain = 0
KTH1 090129Z 19001KT 06/03 A3032 RMK A01 T00620025  RH  077%=      5-min Rain = 0
KTH1 090130Z 18000KT 06/03 A3032 RMK A01 T00620030  RH  080%=      5-min Rain = 0
KTH1 090131Z 19000KT 06/03 A3032 RMK A01 T00620033  RH  082%=      5-min Rain = 0
KTH1 090132Z 20000KT 06/04 A3032 RMK A01 T00620035  RH  083%=      5-min Rain = 0
KTH1 090133Z 22001KT 06/04 A3032 RMK A01 T00620037  RH  084%=      5-min Rain = 0
KTH1 090134Z 24001KT 06/04 A3032 RMK A01 T00620037  RH  084%=      5-min Rain = 0
KTH1 090135Z 24001KT 06/04 A3032 RMK A01 T00620038  RH  085%=      5-min Rain = 0
KTH1 090136Z 23001KT 06/04 A3032 RMK A01 T00620039  RH  085%=      5-min Rain = 0
KTH1 090137Z 23001KT 06/04 A3032 RMK A01 T00620040  RH  086%=      5-min Rain = 0
KTH1 090138Z 21001KT 06/04 A3033 RMK A01 T00610039  RH  086%=      5-min Rain = 0
KTH1 090139Z 20001KT 06/04 A3033 RMK A01 T00610040  RH  086%=      5-min Rain = 0
KTH1 090140Z 19001KT 06/04 A3033 RMK A01 T00610040  RH  086%=      5-min Rain = 0
KTH1 090141Z 19001KT 06/04 A3033 RMK A01 T00610040  RH  086%=      5-min Rain = 0
KTH1 090142Z 20001KT 06/04 A3033 RMK A01 T00610040  RH  087%=      5-min Rain = 0
KTH1 090143Z 22001KT 06/04 A3033 RMK A01 T00600040  RH  087%=      5-min Rain = 0
KTH1 090144Z 24001KT 06/04 A3033 RMK A01 T00600041  RH  087%=      5-min Rain = 0
KTH1 090145Z 21001KT 06/04 A3033 RMK A01 T00600040  RH  087%=      5-min Rain = 0
KTH1 090146Z 19002KT 06/04 A3033 RMK A01 T00590038  RH  086%=      5-min Rain = 0
KTH1 090147Z 18002KT 06/04 A3032 RMK A01 T00590036  RH  086%=      5-min Rain = 0
KTH1 090148Z 18002KT 06/04 A3032 RMK A01 T00580036  RH  085%=      5-min Rain = 0
KTH1 090149Z 18002KT 06/04 A3032 RMK A01 T00580036  RH  085%=      5-min Rain = 0
KTH1 090150Z 18002KT 06/03 A3032 RMK A01 T00570034  RH  085%=      5-min Rain = 0
KTH1 090151Z 19002KT 06/03 A3033 RMK A01 T00580034  RH  085%=      5-min Rain = 0
KTH1 090152Z 21001KT 06/03 A3033 RMK A01 T00570033  RH  085%=      5-min Rain = 0
KTH1 090153Z 25001KT 06/03 A3033 RMK A01 T00570034  RH  085%=      5-min Rain = 0
KTH1 090154Z 26002KT 06/04 A3033 RMK A01 T00580036  RH  086%=      5-min Rain = 0
KTH1 090155Z 24002KT 06/04 A3033 RMK A01 T00590038  RH  086%=      5-min Rain = 0
KTH1 090156Z 22001KT 06/04 A3032 RMK A01 T00590039  RH  087%=      5-min Rain = 0
KTH1 090157Z 20001KT 06/04 A3032 RMK A01 T00590039  RH  087%=      5-min Rain = 0
KTH1 090158Z 18002KT 06/04 A3032 RMK A01 T00580039  RH  087%=      5-min Rain = 0
KTH1 090159Z 17002KT 06/04 A3032 RMK A01 T00580038  RH  087%=      5-min Rain = 0
KTH1 090200Z 16002KT 06/04 A3032 RMK A01 T00580037  RH  086%=      5-min Rain = 0
KTH1 090201Z 16003KT 06/04 A3032 RMK A01 T00570035  RH  085%=      5-min Rain = 0
KTH1 090202Z 15003KT 06/03 A3032 RMK A01 T00570034  RH  085%=      5-min Rain = 0
KTH1 090203Z 14002KT 06/04 A3032 RMK A01 T00570036  RH  086%=      5-min Rain = 0
KTH1 090204Z 15003KT 06/04 A3032 RMK A01 T00570036  RH  086%=      5-min Rain = 0
KTH1 090205Z 15003KT 06/03 A3032 RMK A01 T00560034  RH  086%=      5-min Rain = 0
KTH1 090206Z 16003KT 06/03 A3032 RMK A01 T00550032  RH  085%=      5-min Rain = 0
KTH1 090207Z 16003KT 05/03 A3032 RMK A01 T00540030  RH  085%=      5-min Rain = 0
KTH1 090208Z 17003KT 05/03 A3032 RMK A01 T00540029  RH  084%=      5-min Rain = 0
KTH1 090209Z 18003KT 05/03 A3032 RMK A01 T00530029  RH  084%=      5-min Rain = 0
KTH1 090210Z 19003KT 05/03 A3033 RMK A01 T00530029  RH  084%=      5-min Rain = 0
KTH1 090211Z 19002KT 05/03 A3033 RMK A01 T00530030  RH  085%=      5-min Rain = 0
KTH1 090212Z 22001KT 05/03 A3033 RMK A01 T00530030  RH  085%=      5-min Rain = 0
KTH1 090213Z 23001KT 05/03 A3033 RMK A01 T00530030  RH  085%=      5-min Rain = 0
KTH1 090214Z 22001KT 06/03 A3033 RMK A01 T00550034  RH  087%=      5-min Rain = 0
KTH1 090215Z 22001KT 06/04 A3032 RMK A01 T00560037  RH  088%=      5-min Rain = 0
KTH1 090216Z 20001KT 06/04 A3032 RMK A01 T00560039  RH  088%=      5-min Rain = 0
KTH1 090217Z 20001KT 06/04 A3032 RMK A01 T00560038  RH  088%=      5-min Rain = 0
KTH1 090218Z 19002KT 06/04 A3032 RMK A01 T00560037  RH  088%=      5-min Rain = 0
KTH1 090219Z 19002KT 06/04 A3033 RMK A01 T00560036  RH  087%=      5-min Rain = 0
KTH1 090220Z 19002KT 06/04 A3033 RMK A01 T00560035  RH  087%=      5-min Rain = 0
KTH1 090221Z 19002KT 06/03 A3033 RMK A01 T00560034  RH  086%=      5-min Rain = 0
KTH1 090222Z 18003KT 06/03 A3033 RMK A01 T00550031  RH  085%=      5-min Rain = 0
KTH1 090223Z 18003KT 06/03 A3032 RMK A01 T00560029  RH  083%=      5-min Rain = 0
KTH1 090224Z 18003KT 06/03 A3032 RMK A01 T00560029  RH  083%=      5-min Rain = 0
KTH1 090225Z 17002KT 06/03 A3032 RMK A01 T00560029  RH  083%=      5-min Rain = 0
KTH1 090226Z 18002KT 06/03 A3032 RMK A01 T00560028  RH  082%=      5-min Rain = 0
KTH1 090227Z 18002KT 06/03 A3032 RMK A01 T00560028  RH  082%=      5-min Rain = 0
KTH1 090228Z 19002KT 06/03 A3032 RMK A01 T00560028  RH  082%=      5-min Rain = 0
KTH1 090229Z 19002KT 06/03 A3032 RMK A01 T00570029  RH  082%=      5-min Rain = 0
KTH1 090230Z 20002KT 06/03 A3032 RMK A01 T00570030  RH  083%=      5-min Rain = 0
KTH1 090231Z 20001KT 06/03 A3032 RMK A01 T00570034  RH  085%=      5-min Rain = 0
KTH1 090232Z 19001KT 06/04 A3032 RMK A01 T00570036  RH  086%=      5-min Rain = 0
KTH1 090233Z 18002KT 06/04 A3032 RMK A01 T00560037  RH  087%=      5-min Rain = 0
KTH1 090234Z 17002KT 06/04 A3032 RMK A01 T00560037  RH  088%=      5-min Rain = 0
KTH1 090235Z 17002KT 06/04 A3032 RMK A01 T00560037  RH  088%=      5-min Rain = 0
KTH1 090236Z 17002KT 06/04 A3032 RMK A01 T00550037  RH  088%=      5-min Rain = 0
KTH1 090237Z 18002KT 06/04 A3032 RMK A01 T00550037  RH  088%=      5-min Rain = 0
KTH1 090238Z 19001KT 06/04 A3032 RMK A01 T00550037  RH  089%=      5-min Rain = 0
KTH1 090239Z 19001KT 06/04 A3032 RMK A01 T00550037  RH  089%=      5-min Rain = 0
KTH1 090240Z 18002KT 06/04 A3032 RMK A01 T00550038  RH  089%=      5-min Rain = 0
KTH1 090241Z 18002KT 05/04 A3032 RMK A01 T00540038  RH  089%=      5-min Rain = 0
KTH1 090242Z 19001KT 05/04 A3032 RMK A01 T00540038  RH  089%=      5-min Rain = 0
KTH1 090243Z 19001KT 05/04 A3032 RMK A01 T00540037  RH  089%=      5-min Rain = 0
KTH1 090244Z 20001KT 05/04 A3032 RMK A01 T00540037  RH  089%=      5-min Rain = 0
KTH1 090245Z 20001KT 05/04 A3032 RMK A01 T00540037  RH  089%=      5-min Rain = 0
KTH1 090246Z 19002KT 05/04 A3032 RMK A01 T00540037  RH  089%=      5-min Rain = 0
KTH1 090247Z 20002KT 05/04 A3032 RMK A01 T00540037  RH  089%=      5-min Rain = 0
KTH1 090248Z 19002KT 05/04 A3032 RMK A01 T00540037  RH  088%=      5-min Rain = 0
KTH1 090249Z 20002KT 05/04 A3032 RMK A01 T00540036  RH  088%=      5-min Rain = 0
KTH1 090250Z 20002KT 05/04 A3032 RMK A01 T00540036  RH  088%=      5-min Rain = 0
KTH1 090251Z 20001KT 05/04 A3032 RMK A01 T00540037  RH  089%=      5-min Rain = 0
KTH1 090252Z 22002KT 05/04 A3032 RMK A01 T00540037  RH  089%=      5-min Rain = 0
KTH1 090253Z 21002KT 05/04 A3032 RMK A01 T00540037  RH  089%=      5-min Rain = 0
KTH1 090254Z 21002KT 05/04 A3032 RMK A01 T00540036  RH  088%=      5-min Rain = 0
KTH1 090255Z 20002KT 05/04 A3032 RMK A01 T00530035  RH  088%=      5-min Rain = 0
KTH1 090256Z 19002KT 05/03 A3032 RMK A01 T00530034  RH  088%=      5-min Rain = 0
KTH1 090257Z 18002KT 05/03 A3032 RMK A01 T00530034  RH  087%=      5-min Rain = 0
KTH1 090258Z 18002KT 05/03 A3032 RMK A01 T00530033  RH  087%=      5-min Rain = 0
KTH1 090259Z 18002KT 05/03 A3032 RMK A01 T00530032  RH  087%=      5-min Rain = 0
KTH1 090300Z 18002KT 05/03 A3032 RMK A01 T00520031  RH  086%=      5-min Rain = 0
KTH1 090301Z 18002KT 05/03 A3032 RMK A01 T00520031  RH  086%=      5-min Rain = 0
KTH1 090302Z 18002KT 05/03 A3032 RMK A01 T00520031  RH  086%=      5-min Rain = 0
KTH1 090303Z 19001KT 05/03 A3032 RMK A01 T00520032  RH  087%=      5-min Rain = 0
KTH1 090304Z 21001KT 05/03 A3032 RMK A01 T00510033  RH  088%=      5-min Rain = 0
KTH1 090305Z 22001KT 05/03 A3032 RMK A01 T00520034  RH  089%=      5-min Rain = 0
KTH1 090306Z 21001KT 05/04 A3032 RMK A01 T00520036  RH  089%=      5-min Rain = 0
KTH1 090307Z 20001KT 05/04 A3032 RMK A01 T00520037  RH  090%=      5-min Rain = 0
KTH1 090308Z 20001KT 05/04 A3032 RMK A01 T00520037  RH  091%=      5-min Rain = 0
KTH1 090309Z 20001KT 05/04 A3032 RMK A01 T00520038  RH  091%=      5-min Rain = 0
KTH1 090310Z 20001KT 05/04 A3032 RMK A01 T00520038  RH  091%=      5-min Rain = 0
KTH1 090311Z 20000KT 05/04 A3032 RMK A01 T00510039  RH  091%=      5-min Rain = 0
KTH1 090312Z 25000KT 05/04 A3032 RMK A01 T00520039  RH  092%=      5-min Rain = 0
KTH1 090313Z 25001KT 05/04 A3032 RMK A01 T00510039  RH  092%=      5-min Rain = 0
KTH1 090314Z 25001KT 05/04 A3032 RMK A01 T00520040  RH  092%=      5-min Rain = 0
KTH1 090315Z 25001KT 05/04 A3032 RMK A01 T00520039  RH  092%=      5-min Rain = 0
KTH1 090316Z 25001KT 05/04 A3033 RMK A01 T00520038  RH  091%=      5-min Rain = 0
KTH1 090317Z 24001KT 05/04 A3033 RMK A01 T00520037  RH  090%=      5-min Rain = 0
KTH1 090318Z 24001KT 05/04 A3033 RMK A01 T00510037  RH  090%=      5-min Rain = 0
KTH1 090319Z 25002KT 05/04 A3033 RMK A01 T00510036  RH  090%=      5-min Rain = 0
KTH1 090320Z 25002KT 05/04 A3033 RMK A01 T00520037  RH  090%=      5-min Rain = 0
KTH1 090321Z 25002KT 05/04 A3033 RMK A01 T00520037  RH  090%=      5-min Rain = 0
KTH1 090322Z 25002KT 05/04 A3033 RMK A01 T00520037  RH  090%=      5-min Rain = 0
KTH1 090323Z 25002KT 05/04 A3033 RMK A01 T00520037  RH  091%=      5-min Rain = 0
KTH1 090324Z 25003KT 05/04 A3033 RMK A01 T00510037  RH  091%=      5-min Rain = 0
KTH1 090325Z 25003KT 05/04 A3033 RMK A01 T00510037  RH  091%=      5-min Rain = 0
KTH1 090326Z 24003KT 05/04 A3033 RMK A01 T00510037  RH  091%=      5-min Rain = 0
KTH1 090327Z 25003KT 05/04 A3033 RMK A01 T00510038  RH  091%=      5-min Rain = 0
KTH1 090328Z 25003KT 05/04 A3033 RMK A01 T00520038  RH  091%=      5-min Rain = 0
KTH1 090329Z 24003KT 05/04 A3033 RMK A01 T00520038  RH  091%=      5-min Rain = 0
KTH1 090330Z 24003KT 05/04 A3033 RMK A01 T00520038  RH  091%=      5-min Rain = 0
KTH1 090331Z 24003KT 05/04 A3033 RMK A01 T00510038  RH  091%=      5-min Rain = 0
KTH1 090332Z 24003KT 05/04 A3033 RMK A01 T00510038  RH  091%=      5-min Rain = 0
KTH1 090333Z 24003KT 05/04 A3033 RMK A01 T00510038  RH  091%=      5-min Rain = 0
KTH1 090334Z 24003KT 05/04 A3033 RMK A01 T00520038  RH  091%=      5-min Rain = 0
KTH1 090335Z 24003KT 05/04 A3033 RMK A01 T00510037  RH  090%=      5-min Rain = 0
KTH1 090336Z 24003KT 05/04 A3033 RMK A01 T00510036  RH  090%=      5-min Rain = 0
KTH1 090337Z 23003KT 05/04 A3033 RMK A01 T00510036  RH  090%=      5-min Rain = 0
KTH1 090338Z 23003KT 05/04 A3033 RMK A01 T00510036  RH  090%=      5-min Rain = 0
KTH1 090339Z 23003KT 05/03 A3032 RMK A01 T00510034  RH  089%=      5-min Rain = 0
KTH1 090340Z 22003KT 05/03 A3032 RMK A01 T00510033  RH  088%=      5-min Rain = 0
KTH1 090341Z 22003KT 05/03 A3032 RMK A01 T00500032  RH  088%=      5-min Rain = 0
KTH1 090342Z 21003KT 05/03 A3032 RMK A01 T00500031  RH  088%=      5-min Rain = 0
KTH1 090343Z 21003KT 05/03 A3032 RMK A01 T00500031  RH  088%=      5-min Rain = 0
KTH1 090344Z 21003KT 05/03 A3032 RMK A01 T00500030  RH  087%=      5-min Rain = 0
KTH1 090345Z 21003KT 05/03 A3032 RMK A01 T00500030  RH  087%=      5-min Rain = 0
KTH1 090346Z 21003KT 05/03 A3032 RMK A01 T00500030  RH  087%=      5-min Rain = 0
KTH1 090347Z 22003KT 05/03 A3032 RMK A01 T00500030  RH  087%=      5-min Rain = 0
KTH1 090348Z 22002KT 05/03 A3032 RMK A01 T00500030  RH  087%=      5-min Rain = 0
KTH1 090349Z 22002KT 05/03 A3032 RMK A01 T00500030  RH  087%=      5-min Rain = 0
KTH1 090350Z 22002KT 05/03 A3032 RMK A01 T00500031  RH  087%=      5-min Rain = 0
KTH1 090351Z 21002KT 05/03 A3032 RMK A01 T00500031  RH  088%=      5-min Rain = 0
KTH1 090352Z 21002KT 05/03 A3032 RMK A01 T00500031  RH  088%=      5-min Rain = 0
KTH1 090353Z 20002KT 05/03 A3032 RMK A01 T00500031  RH  088%=      5-min Rain = 0
KTH1 090354Z 18003KT 05/03 A3032 RMK A01 T00500031  RH  088%=      5-min Rain = 0
KTH1 090355Z 17003KT 05/03 A3032 RMK A01 T00500030  RH  087%=      5-min Rain = 0
KTH1 090356Z 17004KT 05/03 A3032 RMK A01 T00490029  RH  087%=      5-min Rain = 0
KTH1 090357Z 17004KT 05/03 A3032 RMK A01 T00490027  RH  086%=      5-min Rain = 0
KTH1 090358Z 16003KT 05/03 A3032 RMK A01 T00490026  RH  086%=      5-min Rain = 0
KTH1 090359Z 16003KT 05/03 A3032 RMK A01 T00480026  RH  086%=      5-min Rain = 0
KTH1 090400Z 15003KT 05/03 A3032 RMK A01 T00480026  RH  086%=      5-min Rain = 0
KTH1 090401Z 15004KT 05/03 A3032 RMK A01 T00480027  RH  087%=      5-min Rain = 0
KTH1 090402Z 17005KT 05/03 A3032 RMK A01 T00480028  RH  087%=      5-min Rain = 0
KTH1 090403Z 17004KT 05/03 A3032 RMK A01 T00490029  RH  087%=      5-min Rain = 0
KTH1 090404Z 17004KT 05/03 A3032 RMK A01 T00500030  RH  087%=      5-min Rain = 0
KTH1 090405Z 17004KT 05/03 A3032 RMK A01 T00500029  RH  086%=      5-min Rain = 0
KTH1 090406Z 17004KT 05/03 A3032 RMK A01 T00500028  RH  086%=      5-min Rain = 0
KTH1 090407Z 17004KT 05/03 A3032 RMK A01 T00510028  RH  085%=      5-min Rain = 0
KTH1 090408Z 17004KT 05/03 A3032 RMK A01 T00510027  RH  085%=      5-min Rain = 0
KTH1 090409Z 18004KT 05/03 A3032 RMK A01 T00520027  RH  084%=      5-min Rain = 0
KTH1 090410Z 17004KT 05/03 A3032 RMK A01 T00520027  RH  084%=      5-min Rain = 0
KTH1 090411Z 17004KT 05/03 A3032 RMK A01 T00520026  RH  084%=      5-min Rain = 0
KTH1 090412Z 17004KT 05/03 A3032 RMK A01 T00520026  RH  083%=      5-min Rain = 0
KTH1 090413Z 17004KT 05/03 A3032 RMK A01 T00520026  RH  083%=      5-min Rain = 0
KTH1 090414Z 18004KT 05/03 A3032 RMK A01 T00520026  RH  083%=      5-min Rain = 0
KTH1 090415Z 18004KT 05/03 A3032 RMK A01 T00530026  RH  083%=      5-min Rain = 0
KTH1 090416Z 18004KT 05/03 A3032 RMK A01 T00530025  RH  083%=      5-min Rain = 0
KTH1 090417Z 18004KT 05/03 A3032 RMK A01 T00530026  RH  082%=      5-min Rain = 0
KTH1 090418Z 18004KT 05/03 A3032 RMK A01 T00530025  RH  082%=      5-min Rain = 0
KTH1 090419Z 18003KT 05/03 A3032 RMK A01 T00530025  RH  082%=      5-min Rain = 0
KTH1 090420Z 18004KT 05/03 A3032 RMK A01 T00530026  RH  082%=      5-min Rain = 0
KTH1 090421Z 18004KT 05/03 A3032 RMK A01 T00540026  RH  082%=      5-min Rain = 0
KTH1 090422Z 18003KT 05/03 A3032 RMK A01 T00540026  RH  082%=      5-min Rain = 0
KTH1 090423Z 18004KT 05/03 A3032 RMK A01 T00540026  RH  082%=      5-min Rain = 0
KTH1 090424Z 18004KT 05/03 A3032 RMK A01 T00540026  RH  082%=      5-min Rain = 0
KTH1 090425Z 18004KT 05/03 A3032 RMK A01 T00540026  RH  082%=      5-min Rain = 0
KTH1 090426Z 18004KT 06/03 A3032 RMK A01 T00550026  RH  082%=      5-min Rain = 0
KTH1 090427Z 18004KT 06/03 A3032 RMK A01 T00550026  RH  082%=      5-min Rain = 0
KTH1 090428Z 18005KT 06/03 A3032 RMK A01 T00550026  RH  082%=      5-min Rain = 0
KTH1 090429Z 17004KT 06/03 A3032 RMK A01 T00550026  RH  082%=      5-min Rain = 0
KTH1 090430Z 18004KT 06/03 A3032 RMK A01 T00550026  RH  082%=      5-min Rain = 0
KTH1 090431Z 18004KT 06/03 A3032 RMK A01 T00550027  RH  082%=      5-min Rain = 0
KTH1 090432Z 18004KT 06/03 A3032 RMK A01 T00550027  RH  082%=      5-min Rain = 0
KTH1 090433Z 18003KT 06/03 A3032 RMK A01 T00550027  RH  082%=      5-min Rain = 0
KTH1 090434Z 18003KT 06/03 A3032 RMK A01 T00550027  RH  082%=      5-min Rain = 0
KTH1 090435Z 18004KT 06/03 A3032 RMK A01 T00550026  RH  082%=      5-min Rain = 0
KTH1 090436Z 18004KT 06/03 A3032 RMK A01 T00550026  RH  082%=      5-min Rain = 0
KTH1 090437Z 18004KT 06/03 A3032 RMK A01 T00550026  RH  082%=      5-min Rain = 0
KTH1 090438Z 18004KT 06/03 A3032 RMK A01 T00550027  RH  082%=      5-min Rain = 0
KTH1 090439Z 19003KT 06/03 A3032 RMK A01 T00550027  RH  082%=      5-min Rain = 0
KTH1 090440Z 18004KT 06/03 A3032 RMK A01 T00550027  RH  082%=      5-min Rain = 0
KTH1 090441Z 18003KT 06/03 A3032 RMK A01 T00550027  RH  082%=      5-min Rain = 0
KTH1 090442Z 18003KT 06/03 A3032 RMK A01 T00550027  RH  082%=      5-min Rain = 0
KTH1 090443Z 18003KT 06/03 A3032 RMK A01 T00550027  RH  082%=      5-min Rain = 0
KTH1 090444Z 19003KT 06/03 A3032 RMK A01 T00550027  RH  082%=      5-min Rain = 0
KTH1 090445Z 20003KT 06/03 A3032 RMK A01 T00550027  RH  082%=      5-min Rain = 0
KTH1 090446Z 20003KT 06/03 A3032 RMK A01 T00550027  RH  082%=      5-min Rain = 0
KTH1 090447Z 20003KT 06/03 A3032 RMK A01 T00550028  RH  082%=      5-min Rain = 0
KTH1 090448Z 20003KT 06/03 A3032 RMK A01 T00550028  RH  083%=      5-min Rain = 0
KTH1 090449Z 20003KT 06/03 A3032 RMK A01 T00560029  RH  083%=      5-min Rain = 0
KTH1 090450Z 20003KT 06/03 A3032 RMK A01 T00560030  RH  083%=      5-min Rain = 0
KTH1 090451Z 20003KT 06/03 A3032 RMK A01 T00560031  RH  084%=      5-min Rain = 0
KTH1 090452Z 21002KT 06/03 A3032 RMK A01 T00550033  RH  085%=      5-min Rain = 0
KTH1 090453Z 20002KT 06/04 A3032 RMK A01 T00550035  RH  087%=      5-min Rain = 0
KTH1 090454Z 20002KT 05/04 A3032 RMK A01 T00540035  RH  088%=      5-min Rain = 0
KTH1 090455Z 20002KT 05/04 A3032 RMK A01 T00540035  RH  088%=      5-min Rain = 0
KTH1 090456Z 21002KT 05/04 A3032 RMK A01 T00530035  RH  088%=      5-min Rain = 0
KTH1 090457Z 22002KT 05/04 A3032 RMK A01 T00530037  RH  089%=      5-min Rain = 0
KTH1 090458Z 25001KT 05/04 A3032 RMK A01 T00530038  RH  090%=      5-min Rain = 0
KTH1 090459Z 28001KT 05/04 A3032 RMK A01 T00530039  RH  091%=      5-min Rain = 0
KTH1 090500Z 29002KT 05/04 A3032 RMK A01 T00530040  RH  091%=      5-min Rain = 0
KTH1 090501Z 29002KT 05/04 A3032 RMK A01 T00530041  RH  092%=      5-min Rain = 0
KTH1 090502Z 29001KT 05/04 A3032 RMK A01 T00540042  RH  092%=      5-min Rain = 0
KTH1 090503Z 28001KT 05/04 A3032 RMK A01 T00530040  RH  091%=      5-min Rain = 0
KTH1 090504Z 27001KT 05/04 A3032 RMK A01 T00520039  RH  091%=      5-min Rain = 0
KTH1 090505Z 27001KT 05/04 A3032 RMK A01 T00520038  RH  091%=      5-min Rain = 0
KTH1 090506Z 28001KT 05/04 A3032 RMK A01 T00520038  RH  091%=      5-min Rain = 0
KTH1 090507Z 27001KT 05/04 A3032 RMK A01 T00520039  RH  091%=      5-min Rain = 0
KTH1 090508Z 26001KT 05/04 A3032 RMK A01 T00510038  RH  091%=      5-min Rain = 0
KTH1 090509Z 26001KT 05/04 A3032 RMK A01 T00510038  RH  091%=      5-min Rain = 0
KTH1 090510Z 26001KT 05/04 A3032 RMK A01 T00510038  RH  091%=      5-min Rain = 0
KTH1 090511Z 26001KT 05/04 A3032 RMK A01 T00510038  RH  091%=      5-min Rain = 0
KTH1 090512Z 25001KT 05/04 A3031 RMK A01 T00510038  RH  092%=      5-min Rain = 0
KTH1 090513Z 26001KT 05/04 A3032 RMK A01 T00500038  RH  091%=      5-min Rain = 0
KTH1 090514Z 27001KT 05/04 A3032 RMK A01 T00490036  RH  091%=      5-min Rain = 0
KTH1 090515Z 27001KT 05/04 A3032 RMK A01 T00490036  RH  092%=      5-min Rain = 0
KTH1 090516Z 28001KT 05/04 A3032 RMK A01 T00490037  RH  092%=      5-min Rain = 0
KTH1 090517Z 28001KT 05/04 A3032 RMK A01 T00490038  RH  093%=      5-min Rain = 0
KTH1 090518Z 28001KT 05/04 A3032 RMK A01 T00490038  RH  093%=      5-min Rain = 0
KTH1 090519Z 26001KT 05/04 A3032 RMK A01 T00490037  RH  092%=      5-min Rain = 0
KTH1 090520Z 26001KT 05/04 A3032 RMK A01 T00480036  RH  092%=      5-min Rain = 0
KTH1 090521Z 24001KT 05/04 A3032 RMK A01 T00480037  RH  093%=      5-min Rain = 0
KTH1 090522Z 26001KT 05/04 A3031 RMK A01 T00480039  RH  094%=      5-min Rain = 0
KTH1 090523Z 26002KT 05/04 A3031 RMK A01 T00480039  RH  094%=      5-min Rain = 0
KTH1 090524Z 26002KT 05/04 A3031 RMK A01 T00480039  RH  094%=      5-min Rain = 0
KTH1 090525Z 26002KT 05/04 A3031 RMK A01 T00480038  RH  093%=      5-min Rain = 0
KTH1 090526Z 26002KT 05/04 A3031 RMK A01 T00480038  RH  093%=      5-min Rain = 0
KTH1 090527Z 26002KT 05/04 A3031 RMK A01 T00480039  RH  094%=      5-min Rain = 0
KTH1 090528Z 26002KT 05/04 A3031 RMK A01 T00490039  RH  094%=      5-min Rain = 0
KTH1 090529Z 26002KT 05/04 A3031 RMK A01 T00500040  RH  093%=      5-min Rain = 0
KTH1 090530Z 26002KT 05/04 A3031 RMK A01 T00500040  RH  093%=      5-min Rain = 0
KTH1 090531Z 26002KT 05/04 A3031 RMK A01 T00500040  RH  093%=      5-min Rain = 0
KTH1 090532Z 26002KT 05/04 A3031 RMK A01 T00500040  RH  093%=      5-min Rain = 0
KTH1 090533Z 26002KT 05/04 A3031 RMK A01 T00500040  RH  093%=      5-min Rain = 0
KTH1 090534Z 25002KT 05/04 A3031 RMK A01 T00500040  RH  093%=      5-min Rain = 0
KTH1 090535Z 25003KT 05/04 A3031 RMK A01 T00500040  RH  093%=      5-min Rain = 0
KTH1 090536Z 25003KT 05/04 A3031 RMK A01 T00500039  RH  093%=      5-min Rain = 0
KTH1 090537Z 25003KT 05/04 A3031 RMK A01 T00500038  RH  092%=      5-min Rain = 0
KTH1 090538Z 25003KT 05/04 A3031 RMK A01 T00500038  RH  092%=      5-min Rain = 0
KTH1 090539Z 24003KT 05/04 A3031 RMK A01 T00490038  RH  092%=      5-min Rain = 0
KTH1 090540Z 24003KT 05/04 A3031 RMK A01 T00490037  RH  092%=      5-min Rain = 0
KTH1 090541Z 25003KT 05/04 A3031 RMK A01 T00490037  RH  092%=      5-min Rain = 0
KTH1 090542Z 25003KT 05/04 A3031 RMK A01 T00480036  RH  092%=      5-min Rain = 0
KTH1 090543Z 25003KT 05/04 A3031 RMK A01 T00480036  RH  092%=      5-min Rain = 0
KTH1 090544Z 25003KT 05/04 A3031 RMK A01 T00480036  RH  092%=      5-min Rain = 0
KTH1 090545Z 25003KT 05/04 A3031 RMK A01 T00470036  RH  092%=      5-min Rain = 0
KTH1 090546Z 24003KT 05/04 A3031 RMK A01 T00470036  RH  092%=      5-min Rain = 0
KTH1 090547Z 24003KT 05/04 A3031 RMK A01 T00470035  RH  092%=      5-min Rain = 0
KTH1 090548Z 25003KT 05/04 A3031 RMK A01 T00460035  RH  092%=      5-min Rain = 0
KTH1 090549Z 25003KT 05/03 A3031 RMK A01 T00460034  RH  092%=      5-min Rain = 0
KTH1 090550Z 25003KT 05/03 A3031 RMK A01 T00460034  RH  092%=      5-min Rain = 0
KTH1 090551Z 25003KT 05/03 A3031 RMK A01 T00460034  RH  092%=      5-min Rain = 0
KTH1 090552Z 25003KT 05/03 A3031 RMK A01 T00460034  RH  092%=      5-min Rain = 0
KTH1 090553Z 25003KT 05/03 A3031 RMK A01 T00460034  RH  092%=      5-min Rain = 0
KTH1 090554Z 25003KT 05/03 A3031 RMK A01 T00460034  RH  092%=      5-min Rain = 0
KTH1 090555Z 24003KT 05/03 A3031 RMK A01 T00460034  RH  092%=      5-min Rain = 0
KTH1 090556Z 24003KT 05/03 A3031 RMK A01 T00460034  RH  092%=      5-min Rain = 0
KTH1 090557Z 24003KT 05/03 A3031 RMK A01 T00460034  RH  092%=      5-min Rain = 0
KTH1 090558Z 24003KT 05/03 A3031 RMK A01 T00460033  RH  092%=      5-min Rain = 0
KTH1 090559Z 24003KT 05/03 A3031 RMK A01 T00460033  RH  092%=      5-min Rain = 0

Page generated in 0.0845 seconds.